<?xml version="1.0" encoding="UTF-8" standalone="no" ?>
<gpx xmlns="http://www.topografix.com/GPX/1/1" creator="MapSource 6.15.3" version="1.1" xmlns:xsi="http://www.w3.org/2001/XMLSchema-instance" xsi:schemaLocation="http://www.topografix.com/GPX/1/1 http://www.topografix.com/GPX/1/1/gpx.xsd">

  <metadata>
    <link href="http://www.garmin.com">
      <text>Garmin International</text>
    </link>
    <time>2010-11-20T17:00:19Z</time>
    <bounds maxlat="45.0925132" maxlon="7.7675390" minlat="45.0754008" minlon="7.7228013"/>
  </metadata>

  <wpt lat="45.0923769" lon="7.7286102">
    <time>2010-11-07T11:17:32Z</time>
    <name>Parking Meisino</name>
    <sym>Parking Area</sym>
    <extensions>
      <gpxx:WaypointExtension xmlns:gpxx="http://www.garmin.com/xmlschemas/GpxExtensions/v3">
        <gpxx:DisplayMode>SymbolOnly</gpxx:DisplayMode>
      </gpxx:WaypointExtension>
    </extensions>
  </wpt>

  <trk>
    <name>TH Superga Loop</name>
    <extensions>
      <gpxx:TrackExtension xmlns:gpxx="http://www.garmin.com/xmlschemas/GpxExtensions/v3">
        <gpxx:DisplayColor>Magenta</gpxx:DisplayColor>
      </gpxx:TrackExtension>
    </extensions>
    <trkseg>
      <trkpt lat="45.0923567" lon="7.7285967">
        <ele>215.4726563</ele>
        <time>2010-11-06T11:52:42Z</time>
      </trkpt>
      <trkpt lat="45.0924785" lon="7.7287228">
        <ele>213.5500488</ele>
        <time>2010-11-06T11:55:37Z</time>
      </trkpt>
      <trkpt lat="45.0925132" lon="7.7289258">
        <ele>213.0693359</ele>
        <time>2010-11-06T11:55:56Z</time>
      </trkpt>
      <trkpt lat="45.0924314" lon="7.7294025">
        <ele>213.5500488</ele>
        <time>2010-11-06T11:56:24Z</time>
      </trkpt>
      <trkpt lat="45.0922630" lon="7.7296603">
        <ele>214.0306396</ele>
        <time>2010-11-06T11:56:45Z</time>
      </trkpt>
      <trkpt lat="45.0921134" lon="7.7299487">
        <ele>214.5112305</ele>
        <time>2010-11-06T11:57:06Z</time>
      </trkpt>
      <trkpt lat="45.0920143" lon="7.7301182">
        <ele>214.0306396</ele>
        <time>2010-11-06T11:57:21Z</time>
      </trkpt>
      <trkpt lat="45.0919582" lon="7.7302544">
        <ele>214.0306396</ele>
        <time>2010-11-06T11:57:30Z</time>
      </trkpt>
      <trkpt lat="45.0919103" lon="7.7303669">
        <ele>214.0306396</ele>
        <time>2010-11-06T11:57:38Z</time>
      </trkpt>
      <trkpt lat="45.0918706" lon="7.7304649">
        <ele>213.5500488</ele>
        <time>2010-11-06T11:57:45Z</time>
      </trkpt>
      <trkpt lat="45.0916946" lon="7.7306684">
        <ele>213.0693359</ele>
        <time>2010-11-06T11:58:07Z</time>
      </trkpt>
      <trkpt lat="45.0916020" lon="7.7307264">
        <ele>213.0693359</ele>
        <time>2010-11-06T11:58:16Z</time>
      </trkpt>
      <trkpt lat="45.0913758" lon="7.7308329">
        <ele>212.5886230</ele>
        <time>2010-11-06T11:58:38Z</time>
      </trkpt>
      <trkpt lat="45.0912852" lon="7.7309388">
        <ele>212.5886230</ele>
        <time>2010-11-06T11:58:49Z</time>
      </trkpt>
      <trkpt lat="45.0912602" lon="7.7312559">
        <ele>212.5886230</ele>
        <time>2010-11-06T11:59:09Z</time>
      </trkpt>
      <trkpt lat="45.0913254" lon="7.7315465">
        <ele>212.5886230</ele>
        <time>2010-11-06T11:59:33Z</time>
      </trkpt>
      <trkpt lat="45.0913795" lon="7.7318235">
        <ele>213.0693359</ele>
        <time>2010-11-06T11:59:53Z</time>
      </trkpt>
      <trkpt lat="45.0913828" lon="7.7318388">
        <ele>212.5886230</ele>
        <time>2010-11-06T11:59:54Z</time>
      </trkpt>
      <trkpt lat="45.0914288" lon="7.7320186">
        <ele>212.5886230</ele>
        <time>2010-11-06T12:00:05Z</time>
      </trkpt>
      <trkpt lat="45.0914273" lon="7.7323951">
        <ele>213.0693359</ele>
        <time>2010-11-06T12:00:28Z</time>
      </trkpt>
      <trkpt lat="45.0913546" lon="7.7326669">
        <ele>212.5886230</ele>
        <time>2010-11-06T12:00:46Z</time>
      </trkpt>
      <trkpt lat="45.0911769" lon="7.7329362">
        <ele>213.0693359</ele>
        <time>2010-11-06T12:01:07Z</time>
      </trkpt>
      <trkpt lat="45.0910177" lon="7.7331564">
        <ele>212.5886230</ele>
        <time>2010-11-06T12:01:25Z</time>
      </trkpt>
      <trkpt lat="45.0907735" lon="7.7334133">
        <ele>213.0693359</ele>
        <time>2010-11-06T12:01:50Z</time>
      </trkpt>
      <trkpt lat="45.0906345" lon="7.7336795">
        <ele>212.5886230</ele>
        <time>2010-11-06T12:02:10Z</time>
      </trkpt>
      <trkpt lat="45.0904732" lon="7.7339668">
        <ele>213.0693359</ele>
        <time>2010-11-06T12:02:31Z</time>
      </trkpt>
      <trkpt lat="45.0903478" lon="7.7344359">
        <ele>212.5886230</ele>
        <time>2010-11-06T12:03:01Z</time>
      </trkpt>
      <trkpt lat="45.0902987" lon="7.7347948">
        <ele>213.0693359</ele>
        <time>2010-11-06T12:03:22Z</time>
      </trkpt>
      <trkpt lat="45.0902509" lon="7.7351227">
        <ele>212.5886230</ele>
        <time>2010-11-06T12:03:42Z</time>
      </trkpt>
      <trkpt lat="45.0902464" lon="7.7355579">
        <ele>213.0693359</ele>
        <time>2010-11-06T12:04:07Z</time>
      </trkpt>
      <trkpt lat="45.0902980" lon="7.7357520">
        <ele>213.0693359</ele>
        <time>2010-11-06T12:04:18Z</time>
      </trkpt>
      <trkpt lat="45.0903136" lon="7.7360927">
        <ele>212.5886230</ele>
        <time>2010-11-06T12:04:39Z</time>
      </trkpt>
      <trkpt lat="45.0902853" lon="7.7362990">
        <ele>213.0693359</ele>
        <time>2010-11-06T12:04:52Z</time>
      </trkpt>
      <trkpt lat="45.0901904" lon="7.7366509">
        <ele>212.5886230</ele>
        <time>2010-11-06T12:05:14Z</time>
      </trkpt>
      <trkpt lat="45.0901534" lon="7.7369756">
        <ele>212.5886230</ele>
        <time>2010-11-06T12:05:33Z</time>
      </trkpt>
      <trkpt lat="45.0901243" lon="7.7373133">
        <ele>212.1080322</ele>
        <time>2010-11-06T12:05:55Z</time>
      </trkpt>
      <trkpt lat="45.0901166" lon="7.7376997">
        <ele>212.5886230</ele>
        <time>2010-11-06T12:06:19Z</time>
      </trkpt>
      <trkpt lat="45.0901045" lon="7.7380920">
        <ele>212.5886230</ele>
        <time>2010-11-06T12:06:43Z</time>
      </trkpt>
      <trkpt lat="45.0901014" lon="7.7383277">
        <ele>212.5886230</ele>
        <time>2010-11-06T12:06:57Z</time>
      </trkpt>
      <trkpt lat="45.0901296" lon="7.7384644">
        <ele>212.5886230</ele>
        <time>2010-11-06T12:07:05Z</time>
      </trkpt>
      <trkpt lat="45.0901333" lon="7.7387577">
        <ele>212.5886230</ele>
        <time>2010-11-06T12:07:23Z</time>
      </trkpt>
      <trkpt lat="45.0901822" lon="7.7390653">
        <ele>212.1080322</ele>
        <time>2010-11-06T12:07:41Z</time>
      </trkpt>
      <trkpt lat="45.0902262" lon="7.7393712">
        <ele>212.1080322</ele>
        <time>2010-11-06T12:08:01Z</time>
      </trkpt>
      <trkpt lat="45.0902270" lon="7.7393860">
        <ele>212.1080322</ele>
        <time>2010-11-06T12:08:02Z</time>
      </trkpt>
      <trkpt lat="45.0902487" lon="7.7397292">
        <ele>212.1080322</ele>
        <time>2010-11-06T12:08:23Z</time>
      </trkpt>
      <trkpt lat="45.0902709" lon="7.7399218">
        <ele>212.1080322</ele>
        <time>2010-11-06T12:08:36Z</time>
      </trkpt>
      <trkpt lat="45.0903661" lon="7.7402380">
        <ele>212.1080322</ele>
        <time>2010-11-06T12:08:58Z</time>
      </trkpt>
      <trkpt lat="45.0904424" lon="7.7404419">
        <ele>212.1080322</ele>
        <time>2010-11-06T12:09:12Z</time>
      </trkpt>
      <trkpt lat="45.0905411" lon="7.7406820">
        <ele>212.1080322</ele>
        <time>2010-11-06T12:09:28Z</time>
      </trkpt>
      <trkpt lat="45.0905994" lon="7.7408650">
        <ele>212.1080322</ele>
        <time>2010-11-06T12:09:40Z</time>
      </trkpt>
      <trkpt lat="45.0906023" lon="7.7409263">
        <ele>212.1080322</ele>
        <time>2010-11-06T12:09:44Z</time>
      </trkpt>
      <trkpt lat="45.0906556" lon="7.7410258">
        <ele>212.1080322</ele>
        <time>2010-11-06T12:09:50Z</time>
      </trkpt>
      <trkpt lat="45.0906937" lon="7.7411155">
        <ele>212.1080322</ele>
        <time>2010-11-06T12:09:56Z</time>
      </trkpt>
      <trkpt lat="45.0907644" lon="7.7412984">
        <ele>212.1080322</ele>
        <time>2010-11-06T12:10:08Z</time>
      </trkpt>
      <trkpt lat="45.0907739" lon="7.7413415">
        <ele>212.1080322</ele>
        <time>2010-11-06T12:10:11Z</time>
      </trkpt>
      <trkpt lat="45.0907729" lon="7.7413936">
        <ele>212.1080322</ele>
        <time>2010-11-06T12:10:14Z</time>
      </trkpt>
      <trkpt lat="45.0908389" lon="7.7416047">
        <ele>213.0693359</ele>
        <time>2010-11-06T12:10:28Z</time>
      </trkpt>
      <trkpt lat="45.0909357" lon="7.7419380">
        <ele>213.0693359</ele>
        <time>2010-11-06T12:10:51Z</time>
      </trkpt>
      <trkpt lat="45.0909889" lon="7.7420679">
        <ele>212.1080322</ele>
        <time>2010-11-06T12:10:59Z</time>
      </trkpt>
      <trkpt lat="45.0911370" lon="7.7423663">
        <ele>212.1080322</ele>
        <time>2010-11-06T12:11:19Z</time>
      </trkpt>
      <trkpt lat="45.0912244" lon="7.7425996">
        <ele>212.5886230</ele>
        <time>2010-11-06T12:11:36Z</time>
      </trkpt>
      <trkpt lat="45.0913606" lon="7.7428589">
        <ele>212.1080322</ele>
        <time>2010-11-06T12:11:55Z</time>
      </trkpt>
      <trkpt lat="45.0914530" lon="7.7430226">
        <ele>212.1080322</ele>
        <time>2010-11-06T12:12:09Z</time>
      </trkpt>
      <trkpt lat="45.0915331" lon="7.7433500">
        <ele>212.5886230</ele>
        <time>2010-11-06T12:12:30Z</time>
      </trkpt>
      <trkpt lat="45.0914210" lon="7.7434330">
        <ele>213.5500488</ele>
        <time>2010-11-06T12:12:44Z</time>
      </trkpt>
      <trkpt lat="45.0912726" lon="7.7435326">
        <ele>216.9146729</ele>
        <time>2010-11-06T12:13:07Z</time>
      </trkpt>
      <trkpt lat="45.0911722" lon="7.7436264">
        <ele>219.7985840</ele>
        <time>2010-11-06T12:13:28Z</time>
      </trkpt>
      <trkpt lat="45.0911645" lon="7.7436436">
        <ele>219.7985840</ele>
        <time>2010-11-06T12:13:31Z</time>
      </trkpt>
      <trkpt lat="45.0911302" lon="7.7437186">
        <ele>219.3179932</ele>
        <time>2010-11-06T12:13:37Z</time>
      </trkpt>
      <trkpt lat="45.0911074" lon="7.7437424">
        <ele>219.7985840</ele>
        <time>2010-11-06T12:13:40Z</time>
      </trkpt>
      <trkpt lat="45.0910681" lon="7.7437657">
        <ele>220.2791748</ele>
        <time>2010-11-06T12:13:44Z</time>
      </trkpt>
      <trkpt lat="45.0910462" lon="7.7438148">
        <ele>220.2791748</ele>
        <time>2010-11-06T12:13:47Z</time>
      </trkpt>
      <trkpt lat="45.0910116" lon="7.7438697">
        <ele>220.2791748</ele>
        <time>2010-11-06T12:13:53Z</time>
      </trkpt>
      <trkpt lat="45.0907707" lon="7.7440587">
        <ele>220.7598877</ele>
        <time>2010-11-06T12:14:16Z</time>
      </trkpt>
      <trkpt lat="45.0906687" lon="7.7439143">
        <ele>221.2406006</ele>
        <time>2010-11-06T12:14:37Z</time>
      </trkpt>
      <trkpt lat="45.0906600" lon="7.7439073">
        <ele>221.2406006</ele>
        <time>2010-11-06T12:14:40Z</time>
      </trkpt>
      <trkpt lat="45.0905938" lon="7.7439019">
        <ele>221.7211914</ele>
        <time>2010-11-06T12:15:01Z</time>
      </trkpt>
      <trkpt lat="45.0904389" lon="7.7438519">
        <ele>222.6824951</ele>
        <time>2010-11-06T12:16:54Z</time>
      </trkpt>
      <trkpt lat="45.0903599" lon="7.7438276">
        <ele>226.0471191</ele>
        <time>2010-11-06T12:17:08Z</time>
      </trkpt>
      <trkpt lat="45.0902543" lon="7.7437480">
        <ele>228.9311523</ele>
        <time>2010-11-06T12:17:27Z</time>
      </trkpt>
      <trkpt lat="45.0901485" lon="7.7436828">
        <ele>230.3730469</ele>
        <time>2010-11-06T12:17:38Z</time>
      </trkpt>
      <trkpt lat="45.0901091" lon="7.7437290">
        <ele>229.4117432</ele>
        <time>2010-11-06T12:17:43Z</time>
      </trkpt>
      <trkpt lat="45.0899266" lon="7.7438932">
        <ele>230.3730469</ele>
        <time>2010-11-06T12:18:03Z</time>
      </trkpt>
      <trkpt lat="45.0898454" lon="7.7439827">
        <ele>230.8537598</ele>
        <time>2010-11-06T12:18:10Z</time>
      </trkpt>
      <trkpt lat="45.0897838" lon="7.7440527">
        <ele>229.4117432</ele>
        <time>2010-11-06T12:18:17Z</time>
      </trkpt>
      <trkpt lat="45.0895961" lon="7.7441232">
        <ele>231.8149414</ele>
        <time>2010-11-06T12:18:39Z</time>
      </trkpt>
      <trkpt lat="45.0894284" lon="7.7442012">
        <ele>231.3343506</ele>
        <time>2010-11-06T12:18:57Z</time>
      </trkpt>
      <trkpt lat="45.0894049" lon="7.7441830">
        <ele>230.8537598</ele>
        <time>2010-11-06T12:19:00Z</time>
      </trkpt>
      <trkpt lat="45.0893571" lon="7.7442136">
        <ele>232.7764893</ele>
        <time>2010-11-06T12:19:10Z</time>
      </trkpt>
      <trkpt lat="45.0891279" lon="7.7442167">
        <ele>234.2183838</ele>
        <time>2010-11-06T12:19:34Z</time>
      </trkpt>
      <trkpt lat="45.0889193" lon="7.7444589">
        <ele>237.1022949</ele>
        <time>2010-11-06T12:20:05Z</time>
      </trkpt>
      <trkpt lat="45.0888272" lon="7.7443899">
        <ele>239.5054932</ele>
        <time>2010-11-06T12:20:31Z</time>
      </trkpt>
      <trkpt lat="45.0887343" lon="7.7444272">
        <ele>242.3896484</ele>
        <time>2010-11-06T12:20:53Z</time>
      </trkpt>
      <trkpt lat="45.0885238" lon="7.7446878">
        <ele>242.3896484</ele>
        <time>2010-11-06T12:21:20Z</time>
      </trkpt>
      <trkpt lat="45.0882570" lon="7.7450079">
        <ele>240.9476318</ele>
        <time>2010-11-06T12:21:47Z</time>
      </trkpt>
      <trkpt lat="45.0880242" lon="7.7451400">
        <ele>240.9476318</ele>
        <time>2010-11-06T12:22:13Z</time>
      </trkpt>
      <trkpt lat="45.0880197" lon="7.7453721">
        <ele>242.3896484</ele>
        <time>2010-11-06T12:22:45Z</time>
      </trkpt>
      <trkpt lat="45.0880905" lon="7.7454551">
        <ele>244.7928467</ele>
        <time>2010-11-06T12:22:56Z</time>
      </trkpt>
      <trkpt lat="45.0880137" lon="7.7457251">
        <ele>244.7928467</ele>
        <time>2010-11-06T12:23:20Z</time>
      </trkpt>
      <trkpt lat="45.0879198" lon="7.7458919">
        <ele>248.1575928</ele>
        <time>2010-11-06T12:23:44Z</time>
      </trkpt>
      <trkpt lat="45.0877803" lon="7.7461799">
        <ele>245.7541504</ele>
        <time>2010-11-06T12:24:13Z</time>
      </trkpt>
      <trkpt lat="45.0877046" lon="7.7463525">
        <ele>247.6767578</ele>
        <time>2010-11-06T12:24:50Z</time>
      </trkpt>
      <trkpt lat="45.0875446" lon="7.7464803">
        <ele>250.5607910</ele>
        <time>2010-11-06T12:25:12Z</time>
      </trkpt>
      <trkpt lat="45.0874789" lon="7.7464819">
        <ele>251.5220947</ele>
        <time>2010-11-06T12:25:20Z</time>
      </trkpt>
      <trkpt lat="45.0872922" lon="7.7464975">
        <ele>253.4447021</ele>
        <time>2010-11-06T12:25:42Z</time>
      </trkpt>
      <trkpt lat="45.0871010" lon="7.7464531">
        <ele>255.3673096</ele>
        <time>2010-11-06T12:26:07Z</time>
      </trkpt>
      <trkpt lat="45.0871339" lon="7.7464646">
        <ele>255.3673096</ele>
        <time>2010-11-06T12:27:23Z</time>
      </trkpt>
      <trkpt lat="45.0868548" lon="7.7465513">
        <ele>258.7319336</ele>
        <time>2010-11-06T12:28:00Z</time>
      </trkpt>
      <trkpt lat="45.0866425" lon="7.7465714">
        <ele>258.7319336</ele>
        <time>2010-11-06T12:28:20Z</time>
      </trkpt>
      <trkpt lat="45.0865255" lon="7.7466734">
        <ele>259.6933594</ele>
        <time>2010-11-06T12:28:49Z</time>
      </trkpt>
      <trkpt lat="45.0863392" lon="7.7468407">
        <ele>261.1352539</ele>
        <time>2010-11-06T12:29:16Z</time>
      </trkpt>
      <trkpt lat="45.0861619" lon="7.7470188">
        <ele>261.6159668</ele>
        <time>2010-11-06T12:29:52Z</time>
      </trkpt>
      <trkpt lat="45.0860387" lon="7.7470005">
        <ele>264.9805908</ele>
        <time>2010-11-06T12:30:20Z</time>
      </trkpt>
      <trkpt lat="45.0858303" lon="7.7469387">
        <ele>267.8645020</ele>
        <time>2010-11-06T12:30:38Z</time>
      </trkpt>
      <trkpt lat="45.0857995" lon="7.7469507">
        <ele>267.3839111</ele>
        <time>2010-11-06T12:30:42Z</time>
      </trkpt>
      <trkpt lat="45.0855098" lon="7.7469242">
        <ele>267.8645020</ele>
        <time>2010-11-06T12:31:10Z</time>
      </trkpt>
      <trkpt lat="45.0853807" lon="7.7471092">
        <ele>265.9418945</ele>
        <time>2010-11-06T12:31:32Z</time>
      </trkpt>
      <trkpt lat="45.0852197" lon="7.7472670">
        <ele>268.8258057</ele>
        <time>2010-11-06T12:31:51Z</time>
      </trkpt>
      <trkpt lat="45.0850275" lon="7.7474625">
        <ele>271.7097168</ele>
        <time>2010-11-06T12:32:16Z</time>
      </trkpt>
      <trkpt lat="45.0849492" lon="7.7475577">
        <ele>270.7484131</ele>
        <time>2010-11-06T12:32:44Z</time>
      </trkpt>
      <trkpt lat="45.0848834" lon="7.7477928">
        <ele>273.6324463</ele>
        <time>2010-11-06T12:33:14Z</time>
      </trkpt>
      <trkpt lat="45.0848735" lon="7.7478307">
        <ele>276.5163574</ele>
        <time>2010-11-06T12:33:30Z</time>
      </trkpt>
      <trkpt lat="45.0847680" lon="7.7481555">
        <ele>277.4776611</ele>
        <time>2010-11-06T12:33:59Z</time>
      </trkpt>
      <trkpt lat="45.0847291" lon="7.7481807">
        <ele>279.4002686</ele>
        <time>2010-11-06T12:34:04Z</time>
      </trkpt>
      <trkpt lat="45.0843759" lon="7.7484666">
        <ele>281.8035889</ele>
        <time>2010-11-06T12:34:26Z</time>
      </trkpt>
      <trkpt lat="45.0844619" lon="7.7486535">
        <ele>284.6876221</ele>
        <time>2010-11-06T12:34:47Z</time>
      </trkpt>
      <trkpt lat="45.0843304" lon="7.7487043">
        <ele>285.1682129</ele>
        <time>2010-11-06T12:35:17Z</time>
      </trkpt>
      <trkpt lat="45.0842464" lon="7.7487721">
        <ele>287.5714111</ele>
        <time>2010-11-06T12:35:30Z</time>
      </trkpt>
      <trkpt lat="45.0841183" lon="7.7489602">
        <ele>290.4555664</ele>
        <time>2010-11-06T12:35:54Z</time>
      </trkpt>
      <trkpt lat="45.0839990" lon="7.7491229">
        <ele>293.8200684</ele>
        <time>2010-11-06T12:36:17Z</time>
      </trkpt>
      <trkpt lat="45.0838785" lon="7.7492708">
        <ele>296.7041016</ele>
        <time>2010-11-06T12:36:35Z</time>
      </trkpt>
      <trkpt lat="45.0837452" lon="7.7492436">
        <ele>299.5880127</ele>
        <time>2010-11-06T12:36:54Z</time>
      </trkpt>
      <trkpt lat="45.0836692" lon="7.7491626">
        <ele>300.5493164</ele>
        <time>2010-11-06T12:37:03Z</time>
      </trkpt>
      <trkpt lat="45.0835344" lon="7.7490362">
        <ele>303.9139404</ele>
        <time>2010-11-06T12:37:21Z</time>
      </trkpt>
      <trkpt lat="45.0833714" lon="7.7490272">
        <ele>307.2785645</ele>
        <time>2010-11-06T12:37:42Z</time>
      </trkpt>
      <trkpt lat="45.0833067" lon="7.7491126">
        <ele>310.1624756</ele>
        <time>2010-11-06T12:38:08Z</time>
      </trkpt>
      <trkpt lat="45.0831456" lon="7.7492555">
        <ele>313.0465088</ele>
        <time>2010-11-06T12:38:31Z</time>
      </trkpt>
      <trkpt lat="45.0829881" lon="7.7493248">
        <ele>315.9304199</ele>
        <time>2010-11-06T12:38:56Z</time>
      </trkpt>
      <trkpt lat="45.0828912" lon="7.7494577">
        <ele>318.8143311</ele>
        <time>2010-11-06T12:39:17Z</time>
      </trkpt>
      <trkpt lat="45.0828075" lon="7.7495583">
        <ele>321.6983643</ele>
        <time>2010-11-06T12:39:39Z</time>
      </trkpt>
      <trkpt lat="45.0825844" lon="7.7497898">
        <ele>324.1015625</ele>
        <time>2010-11-06T12:40:03Z</time>
      </trkpt>
      <trkpt lat="45.0825290" lon="7.7500950">
        <ele>326.5048828</ele>
        <time>2010-11-06T12:40:26Z</time>
      </trkpt>
      <trkpt lat="45.0825785" lon="7.7503155">
        <ele>329.3889160</ele>
        <time>2010-11-06T12:40:44Z</time>
      </trkpt>
      <trkpt lat="45.0824869" lon="7.7503667">
        <ele>332.2728271</ele>
        <time>2010-11-06T12:41:03Z</time>
      </trkpt>
      <trkpt lat="45.0823350" lon="7.7503351">
        <ele>335.6373291</ele>
        <time>2010-11-06T12:41:22Z</time>
      </trkpt>
      <trkpt lat="45.0822723" lon="7.7502709">
        <ele>338.5214844</ele>
        <time>2010-11-06T12:41:37Z</time>
      </trkpt>
      <trkpt lat="45.0821315" lon="7.7501845">
        <ele>341.8859863</ele>
        <time>2010-11-06T12:42:02Z</time>
      </trkpt>
      <trkpt lat="45.0820525" lon="7.7501672">
        <ele>345.2506104</ele>
        <time>2010-11-06T12:42:17Z</time>
      </trkpt>
      <trkpt lat="45.0820313" lon="7.7501887">
        <ele>346.2120361</ele>
        <time>2010-11-06T12:42:24Z</time>
      </trkpt>
      <trkpt lat="45.0819179" lon="7.7502389">
        <ele>349.5765381</ele>
        <time>2010-11-06T12:42:40Z</time>
      </trkpt>
      <trkpt lat="45.0817277" lon="7.7502075">
        <ele>350.5378418</ele>
        <time>2010-11-06T12:43:08Z</time>
      </trkpt>
      <trkpt lat="45.0816407" lon="7.7502318">
        <ele>350.0572510</ele>
        <time>2010-11-06T12:43:38Z</time>
      </trkpt>
      <trkpt lat="45.0817047" lon="7.7503371">
        <ele>349.0958252</ele>
        <time>2010-11-06T12:44:26Z</time>
      </trkpt>
      <trkpt lat="45.0817406" lon="7.7504376">
        <ele>348.1346436</ele>
        <time>2010-11-06T12:44:35Z</time>
      </trkpt>
      <trkpt lat="45.0817994" lon="7.7507033">
        <ele>347.1732178</ele>
        <time>2010-11-06T12:44:51Z</time>
      </trkpt>
      <trkpt lat="45.0817430" lon="7.7508914">
        <ele>346.6926270</ele>
        <time>2010-11-06T12:45:07Z</time>
      </trkpt>
      <trkpt lat="45.0816813" lon="7.7509363">
        <ele>346.6926270</ele>
        <time>2010-11-06T12:45:13Z</time>
      </trkpt>
      <trkpt lat="45.0815102" lon="7.7510349">
        <ele>347.1732178</ele>
        <time>2010-11-06T12:45:33Z</time>
      </trkpt>
      <trkpt lat="45.0815919" lon="7.7513199">
        <ele>346.2120361</ele>
        <time>2010-11-06T12:46:02Z</time>
      </trkpt>
      <trkpt lat="45.0818316" lon="7.7513613">
        <ele>345.2506104</ele>
        <time>2010-11-06T12:46:21Z</time>
      </trkpt>
      <trkpt lat="45.0818339" lon="7.7514130">
        <ele>346.6926270</ele>
        <time>2010-11-06T12:46:45Z</time>
      </trkpt>
      <trkpt lat="45.0818236" lon="7.7515504">
        <ele>350.5378418</ele>
        <time>2010-11-06T12:47:04Z</time>
      </trkpt>
      <trkpt lat="45.0817707" lon="7.7516999">
        <ele>353.9025879</ele>
        <time>2010-11-06T12:47:25Z</time>
      </trkpt>
      <trkpt lat="45.0817023" lon="7.7518121">
        <ele>356.7863770</ele>
        <time>2010-11-06T12:47:43Z</time>
      </trkpt>
      <trkpt lat="45.0815201" lon="7.7519746">
        <ele>359.6704102</ele>
        <time>2010-11-06T12:47:59Z</time>
      </trkpt>
      <trkpt lat="45.0814546" lon="7.7520549">
        <ele>363.5157471</ele>
        <time>2010-11-06T12:48:16Z</time>
      </trkpt>
      <trkpt lat="45.0813362" lon="7.7520978">
        <ele>366.3995361</ele>
        <time>2010-11-06T12:48:35Z</time>
      </trkpt>
      <trkpt lat="45.0812279" lon="7.7521608">
        <ele>369.7642822</ele>
        <time>2010-11-06T12:48:56Z</time>
      </trkpt>
      <trkpt lat="45.0811798" lon="7.7522453">
        <ele>373.1289063</ele>
        <time>2010-11-06T12:49:29Z</time>
      </trkpt>
      <trkpt lat="45.0810921" lon="7.7522923">
        <ele>376.4935303</ele>
        <time>2010-11-06T12:49:46Z</time>
      </trkpt>
      <trkpt lat="45.0810047" lon="7.7523535">
        <ele>379.3774414</ele>
        <time>2010-11-06T12:50:01Z</time>
      </trkpt>
      <trkpt lat="45.0809279" lon="7.7523663">
        <ele>382.7420654</ele>
        <time>2010-11-06T12:50:16Z</time>
      </trkpt>
      <trkpt lat="45.0808620" lon="7.7524108">
        <ele>385.6259766</ele>
        <time>2010-11-06T12:50:32Z</time>
      </trkpt>
      <trkpt lat="45.0808128" lon="7.7524463">
        <ele>386.5874023</ele>
        <time>2010-11-06T12:51:11Z</time>
      </trkpt>
      <trkpt lat="45.0808529" lon="7.7525357">
        <ele>385.1453857</ele>
        <time>2010-11-06T12:52:36Z</time>
      </trkpt>
      <trkpt lat="45.0809362" lon="7.7527175">
        <ele>384.1840820</ele>
        <time>2010-11-06T12:52:49Z</time>
      </trkpt>
      <trkpt lat="45.0808338" lon="7.7529945">
        <ele>382.2613525</ele>
        <time>2010-11-06T12:53:13Z</time>
      </trkpt>
      <trkpt lat="45.0806446" lon="7.7532079">
        <ele>381.7806396</ele>
        <time>2010-11-06T12:53:36Z</time>
      </trkpt>
      <trkpt lat="45.0805809" lon="7.7534379">
        <ele>381.7806396</ele>
        <time>2010-11-06T12:53:51Z</time>
      </trkpt>
      <trkpt lat="45.0805185" lon="7.7534769">
        <ele>381.7806396</ele>
        <time>2010-11-06T12:53:57Z</time>
      </trkpt>
      <trkpt lat="45.0802730" lon="7.7536959">
        <ele>384.6647949</ele>
        <time>2010-11-06T12:54:28Z</time>
      </trkpt>
      <trkpt lat="45.0803473" lon="7.7538255">
        <ele>383.7032471</ele>
        <time>2010-11-06T12:54:41Z</time>
      </trkpt>
      <trkpt lat="45.0804183" lon="7.7539926">
        <ele>383.2226563</ele>
        <time>2010-11-06T12:55:01Z</time>
      </trkpt>
      <trkpt lat="45.0804783" lon="7.7540633">
        <ele>383.2226563</ele>
        <time>2010-11-06T12:55:33Z</time>
      </trkpt>
      <trkpt lat="45.0805921" lon="7.7542899">
        <ele>383.7032471</ele>
        <time>2010-11-06T12:55:56Z</time>
      </trkpt>
      <trkpt lat="45.0806186" lon="7.7543240">
        <ele>383.2226563</ele>
        <time>2010-11-06T12:55:59Z</time>
      </trkpt>
      <trkpt lat="45.0807086" lon="7.7545314">
        <ele>384.6647949</ele>
        <time>2010-11-06T12:56:16Z</time>
      </trkpt>
      <trkpt lat="45.0807372" lon="7.7548270">
        <ele>384.1840820</ele>
        <time>2010-11-06T12:56:35Z</time>
      </trkpt>
      <trkpt lat="45.0808756" lon="7.7550245">
        <ele>383.2226563</ele>
        <time>2010-11-06T12:56:51Z</time>
      </trkpt>
      <trkpt lat="45.0808901" lon="7.7551074">
        <ele>381.7806396</ele>
        <time>2010-11-06T12:56:56Z</time>
      </trkpt>
      <trkpt lat="45.0808668" lon="7.7552189">
        <ele>380.3387451</ele>
        <time>2010-11-06T12:57:04Z</time>
      </trkpt>
      <trkpt lat="45.0808185" lon="7.7554721">
        <ele>379.3774414</ele>
        <time>2010-11-06T12:57:26Z</time>
      </trkpt>
      <trkpt lat="45.0808377" lon="7.7554817">
        <ele>379.3774414</ele>
        <time>2010-11-06T12:57:28Z</time>
      </trkpt>
      <trkpt lat="45.0810600" lon="7.7555975">
        <ele>380.3387451</ele>
        <time>2010-11-06T12:57:50Z</time>
      </trkpt>
      <trkpt lat="45.0812586" lon="7.7557221">
        <ele>377.9354248</ele>
        <time>2010-11-06T12:58:11Z</time>
      </trkpt>
      <trkpt lat="45.0815249" lon="7.7558766">
        <ele>376.0128174</ele>
        <time>2010-11-06T12:58:38Z</time>
      </trkpt>
      <trkpt lat="45.0817235" lon="7.7560134">
        <ele>375.0515137</ele>
        <time>2010-11-06T12:59:00Z</time>
      </trkpt>
      <trkpt lat="45.0817337" lon="7.7560183">
        <ele>375.5321045</ele>
        <time>2010-11-06T13:00:17Z</time>
      </trkpt>
      <trkpt lat="45.0816421" lon="7.7561103">
        <ele>375.5321045</ele>
        <time>2010-11-06T13:01:34Z</time>
      </trkpt>
      <trkpt lat="45.0817468" lon="7.7560679">
        <ele>375.5321045</ele>
        <time>2010-11-06T13:02:25Z</time>
      </trkpt>
      <trkpt lat="45.0816867" lon="7.7562408">
        <ele>376.0128174</ele>
        <time>2010-11-06T13:04:55Z</time>
      </trkpt>
      <trkpt lat="45.0816648" lon="7.7565977">
        <ele>376.4935303</ele>
        <time>2010-11-06T13:05:21Z</time>
      </trkpt>
      <trkpt lat="45.0817093" lon="7.7569752">
        <ele>376.0128174</ele>
        <time>2010-11-06T13:05:48Z</time>
      </trkpt>
      <trkpt lat="45.0818092" lon="7.7573411">
        <ele>376.4935303</ele>
        <time>2010-11-06T13:06:14Z</time>
      </trkpt>
      <trkpt lat="45.0817834" lon="7.7575266">
        <ele>375.0515137</ele>
        <time>2010-11-06T13:06:36Z</time>
      </trkpt>
      <trkpt lat="45.0818307" lon="7.7577289">
        <ele>376.0128174</ele>
        <time>2010-11-06T13:07:04Z</time>
      </trkpt>
      <trkpt lat="45.0819246" lon="7.7576334">
        <ele>378.8968506</ele>
        <time>2010-11-06T13:07:22Z</time>
      </trkpt>
      <trkpt lat="45.0820359" lon="7.7576170">
        <ele>379.8580322</ele>
        <time>2010-11-06T13:07:30Z</time>
      </trkpt>
      <trkpt lat="45.0821989" lon="7.7574311">
        <ele>383.7032471</ele>
        <time>2010-11-06T13:07:55Z</time>
      </trkpt>
      <trkpt lat="45.0822940" lon="7.7574589">
        <ele>386.5874023</ele>
        <time>2010-11-06T13:08:19Z</time>
      </trkpt>
      <trkpt lat="45.0823704" lon="7.7574997">
        <ele>389.9519043</ele>
        <time>2010-11-06T13:09:00Z</time>
      </trkpt>
      <trkpt lat="45.0823992" lon="7.7575844">
        <ele>392.8359375</ele>
        <time>2010-11-06T13:09:17Z</time>
      </trkpt>
      <trkpt lat="45.0823951" lon="7.7576521">
        <ele>396.2005615</ele>
        <time>2010-11-06T13:09:36Z</time>
      </trkpt>
      <trkpt lat="45.0823476" lon="7.7577271">
        <ele>399.0843506</ele>
        <time>2010-11-06T13:09:54Z</time>
      </trkpt>
      <trkpt lat="45.0823613" lon="7.7578509">
        <ele>402.4490967</ele>
        <time>2010-11-06T13:10:10Z</time>
      </trkpt>
      <trkpt lat="45.0823408" lon="7.7578906">
        <ele>405.3330078</ele>
        <time>2010-11-06T13:10:28Z</time>
      </trkpt>
      <trkpt lat="45.0823251" lon="7.7579032">
        <ele>408.2170410</ele>
        <time>2010-11-06T13:10:56Z</time>
      </trkpt>
      <trkpt lat="45.0823032" lon="7.7579836">
        <ele>411.5816650</ele>
        <time>2010-11-06T13:11:18Z</time>
      </trkpt>
      <trkpt lat="45.0823127" lon="7.7579938">
        <ele>414.4654541</ele>
        <time>2010-11-06T13:11:33Z</time>
      </trkpt>
      <trkpt lat="45.0823218" lon="7.7580125">
        <ele>417.3496094</ele>
        <time>2010-11-06T13:11:51Z</time>
      </trkpt>
      <trkpt lat="45.0823249" lon="7.7580268">
        <ele>420.7141113</ele>
        <time>2010-11-06T13:12:15Z</time>
      </trkpt>
      <trkpt lat="45.0823337" lon="7.7580995">
        <ele>423.5980225</ele>
        <time>2010-11-06T13:12:28Z</time>
      </trkpt>
      <trkpt lat="45.0823799" lon="7.7582020">
        <ele>425.5207520</ele>
        <time>2010-11-06T13:12:37Z</time>
      </trkpt>
      <trkpt lat="45.0823175" lon="7.7583562">
        <ele>428.4046631</ele>
        <time>2010-11-06T13:12:57Z</time>
      </trkpt>
      <trkpt lat="45.0823019" lon="7.7584165">
        <ele>431.7691650</ele>
        <time>2010-11-06T13:13:15Z</time>
      </trkpt>
      <trkpt lat="45.0823238" lon="7.7585813">
        <ele>434.6533203</ele>
        <time>2010-11-06T13:13:36Z</time>
      </trkpt>
      <trkpt lat="45.0823517" lon="7.7587074">
        <ele>437.5371094</ele>
        <time>2010-11-06T13:13:54Z</time>
      </trkpt>
      <trkpt lat="45.0823577" lon="7.7587130">
        <ele>438.4985352</ele>
        <time>2010-11-06T13:14:01Z</time>
      </trkpt>
      <trkpt lat="45.0823389" lon="7.7587937">
        <ele>441.3824463</ele>
        <time>2010-11-06T13:14:32Z</time>
      </trkpt>
      <trkpt lat="45.0823556" lon="7.7588188">
        <ele>444.7470703</ele>
        <time>2010-11-06T13:14:57Z</time>
      </trkpt>
      <trkpt lat="45.0824028" lon="7.7592076">
        <ele>448.1118164</ele>
        <time>2010-11-06T13:15:16Z</time>
      </trkpt>
      <trkpt lat="45.0822898" lon="7.7598015">
        <ele>450.9956055</ele>
        <time>2010-11-06T13:15:42Z</time>
      </trkpt>
      <trkpt lat="45.0823154" lon="7.7599000">
        <ele>454.3602295</ele>
        <time>2010-11-06T13:16:05Z</time>
      </trkpt>
      <trkpt lat="45.0823046" lon="7.7600254">
        <ele>457.2442627</ele>
        <time>2010-11-06T13:16:24Z</time>
      </trkpt>
      <trkpt lat="45.0823177" lon="7.7601309">
        <ele>459.6475830</ele>
        <time>2010-11-06T13:16:44Z</time>
      </trkpt>
      <trkpt lat="45.0822714" lon="7.7603745">
        <ele>462.5313721</ele>
        <time>2010-11-06T13:17:10Z</time>
      </trkpt>
      <trkpt lat="45.0823390" lon="7.7606785">
        <ele>465.4155273</ele>
        <time>2010-11-06T13:17:32Z</time>
      </trkpt>
      <trkpt lat="45.0823622" lon="7.7607717">
        <ele>468.7800293</ele>
        <time>2010-11-06T13:17:51Z</time>
      </trkpt>
      <trkpt lat="45.0824045" lon="7.7608461">
        <ele>472.1446533</ele>
        <time>2010-11-06T13:18:10Z</time>
      </trkpt>
      <trkpt lat="45.0824435" lon="7.7609244">
        <ele>475.0286865</ele>
        <time>2010-11-06T13:18:26Z</time>
      </trkpt>
      <trkpt lat="45.0823953" lon="7.7610385">
        <ele>478.8739014</ele>
        <time>2010-11-06T13:18:45Z</time>
      </trkpt>
      <trkpt lat="45.0825008" lon="7.7611350">
        <ele>481.7578125</ele>
        <time>2010-11-06T13:19:04Z</time>
      </trkpt>
      <trkpt lat="45.0824774" lon="7.7612341">
        <ele>484.6418457</ele>
        <time>2010-11-06T13:19:20Z</time>
      </trkpt>
      <trkpt lat="45.0825524" lon="7.7613164">
        <ele>488.0064697</ele>
        <time>2010-11-06T13:19:38Z</time>
      </trkpt>
      <trkpt lat="45.0825389" lon="7.7613305">
        <ele>488.4871826</ele>
        <time>2010-11-06T13:20:27Z</time>
      </trkpt>
      <trkpt lat="45.0824949" lon="7.7613885">
        <ele>491.8516846</ele>
        <time>2010-11-06T13:21:14Z</time>
      </trkpt>
      <trkpt lat="45.0825020" lon="7.7614945">
        <ele>494.7355957</ele>
        <time>2010-11-06T13:21:29Z</time>
      </trkpt>
      <trkpt lat="45.0825028" lon="7.7616474">
        <ele>497.6196289</ele>
        <time>2010-11-06T13:21:47Z</time>
      </trkpt>
      <trkpt lat="45.0824862" lon="7.7617785">
        <ele>500.9841309</ele>
        <time>2010-11-06T13:22:03Z</time>
      </trkpt>
      <trkpt lat="45.0825032" lon="7.7618723">
        <ele>503.8681641</ele>
        <time>2010-11-06T13:22:20Z</time>
      </trkpt>
      <trkpt lat="45.0825012" lon="7.7620071">
        <ele>507.2327881</ele>
        <time>2010-11-06T13:22:37Z</time>
      </trkpt>
      <trkpt lat="45.0825377" lon="7.7620411">
        <ele>510.1166992</ele>
        <time>2010-11-06T13:22:55Z</time>
      </trkpt>
      <trkpt lat="45.0825410" lon="7.7620914">
        <ele>512.0394287</ele>
        <time>2010-11-06T13:24:12Z</time>
      </trkpt>
      <trkpt lat="45.0825848" lon="7.7622257">
        <ele>515.4040527</ele>
        <time>2010-11-06T13:26:11Z</time>
      </trkpt>
      <trkpt lat="45.0826190" lon="7.7623550">
        <ele>518.2878418</ele>
        <time>2010-11-06T13:26:29Z</time>
      </trkpt>
      <trkpt lat="45.0825640" lon="7.7624497">
        <ele>521.1719971</ele>
        <time>2010-11-06T13:26:47Z</time>
      </trkpt>
      <trkpt lat="45.0825771" lon="7.7626001">
        <ele>524.5364990</ele>
        <time>2010-11-06T13:27:06Z</time>
      </trkpt>
      <trkpt lat="45.0825541" lon="7.7626885">
        <ele>527.4204102</ele>
        <time>2010-11-06T13:27:23Z</time>
      </trkpt>
      <trkpt lat="45.0824842" lon="7.7629065">
        <ele>530.7851563</ele>
        <time>2010-11-06T13:27:45Z</time>
      </trkpt>
      <trkpt lat="45.0824114" lon="7.7630834">
        <ele>532.7077637</ele>
        <time>2010-11-06T13:27:59Z</time>
      </trkpt>
      <trkpt lat="45.0823492" lon="7.7631654">
        <ele>535.5915527</ele>
        <time>2010-11-06T13:28:10Z</time>
      </trkpt>
      <trkpt lat="45.0822545" lon="7.7632980">
        <ele>538.9562988</ele>
        <time>2010-11-06T13:28:29Z</time>
      </trkpt>
      <trkpt lat="45.0821528" lon="7.7635323">
        <ele>541.3594971</ele>
        <time>2010-11-06T13:28:54Z</time>
      </trkpt>
      <trkpt lat="45.0821345" lon="7.7638130">
        <ele>543.7628174</ele>
        <time>2010-11-06T13:29:19Z</time>
      </trkpt>
      <trkpt lat="45.0821555" lon="7.7638706">
        <ele>544.7242432</ele>
        <time>2010-11-06T13:29:23Z</time>
      </trkpt>
      <trkpt lat="45.0821064" lon="7.7640966">
        <ele>548.0888672</ele>
        <time>2010-11-06T13:29:46Z</time>
      </trkpt>
      <trkpt lat="45.0820917" lon="7.7641143">
        <ele>550.0114746</ele>
        <time>2010-11-06T13:30:43Z</time>
      </trkpt>
      <trkpt lat="45.0820308" lon="7.7642912">
        <ele>550.9726563</ele>
        <time>2010-11-06T13:31:54Z</time>
      </trkpt>
      <trkpt lat="45.0819107" lon="7.7644981">
        <ele>553.8566895</ele>
        <time>2010-11-06T13:32:12Z</time>
      </trkpt>
      <trkpt lat="45.0817086" lon="7.7645583">
        <ele>556.2600098</ele>
        <time>2010-11-06T13:32:38Z</time>
      </trkpt>
      <trkpt lat="45.0816630" lon="7.7645792">
        <ele>556.7407227</ele>
        <time>2010-11-06T13:33:47Z</time>
      </trkpt>
      <trkpt lat="45.0815209" lon="7.7645166">
        <ele>557.7021484</ele>
        <time>2010-11-06T13:34:02Z</time>
      </trkpt>
      <trkpt lat="45.0814397" lon="7.7645503">
        <ele>558.1828613</ele>
        <time>2010-11-06T13:34:08Z</time>
      </trkpt>
      <trkpt lat="45.0813044" lon="7.7645840">
        <ele>559.6247559</ele>
        <time>2010-11-06T13:34:23Z</time>
      </trkpt>
      <trkpt lat="45.0811395" lon="7.7645872">
        <ele>562.9892578</ele>
        <time>2010-11-06T13:34:41Z</time>
      </trkpt>
      <trkpt lat="45.0809260" lon="7.7644684">
        <ele>564.9118652</ele>
        <time>2010-11-06T13:35:06Z</time>
      </trkpt>
      <trkpt lat="45.0807778" lon="7.7644147">
        <ele>565.3925781</ele>
        <time>2010-11-06T13:35:20Z</time>
      </trkpt>
      <trkpt lat="45.0805672" lon="7.7643391">
        <ele>566.3537598</ele>
        <time>2010-11-06T13:35:40Z</time>
      </trkpt>
      <trkpt lat="45.0803479" lon="7.7642964">
        <ele>567.7956543</ele>
        <time>2010-11-06T13:36:01Z</time>
      </trkpt>
      <trkpt lat="45.0802220" lon="7.7642928">
        <ele>568.7570801</ele>
        <time>2010-11-06T13:36:15Z</time>
      </trkpt>
      <trkpt lat="45.0800492" lon="7.7640813">
        <ele>571.6408691</ele>
        <time>2010-11-06T13:36:38Z</time>
      </trkpt>
      <trkpt lat="45.0800023" lon="7.7640632">
        <ele>572.6025391</ele>
        <time>2010-11-06T13:36:43Z</time>
      </trkpt>
      <trkpt lat="45.0799515" lon="7.7641852">
        <ele>575.9670410</ele>
        <time>2010-11-06T13:37:02Z</time>
      </trkpt>
      <trkpt lat="45.0800176" lon="7.7644117">
        <ele>579.3315430</ele>
        <time>2010-11-06T13:37:22Z</time>
      </trkpt>
      <trkpt lat="45.0801193" lon="7.7646140">
        <ele>582.6962891</ele>
        <time>2010-11-06T13:37:43Z</time>
      </trkpt>
      <trkpt lat="45.0802324" lon="7.7647526">
        <ele>586.0607910</ele>
        <time>2010-11-06T13:38:04Z</time>
      </trkpt>
      <trkpt lat="45.0804108" lon="7.7649380">
        <ele>589.4255371</ele>
        <time>2010-11-06T13:38:30Z</time>
      </trkpt>
      <trkpt lat="45.0804436" lon="7.7649868">
        <ele>589.4255371</ele>
        <time>2010-11-06T13:38:36Z</time>
      </trkpt>
      <trkpt lat="45.0806474" lon="7.7651405">
        <ele>592.3095703</ele>
        <time>2010-11-06T13:39:05Z</time>
      </trkpt>
      <trkpt lat="45.0808028" lon="7.7652444">
        <ele>594.2321777</ele>
        <time>2010-11-06T13:39:25Z</time>
      </trkpt>
      <trkpt lat="45.0810078" lon="7.7654458">
        <ele>598.0773926</ele>
        <time>2010-11-06T13:39:52Z</time>
      </trkpt>
      <trkpt lat="45.0810311" lon="7.7655635">
        <ele>600.4807129</ele>
        <time>2010-11-06T13:40:23Z</time>
      </trkpt>
      <trkpt lat="45.0809975" lon="7.7655738">
        <ele>600.4807129</ele>
        <time>2010-11-06T13:40:37Z</time>
      </trkpt>
      <trkpt lat="45.0809769" lon="7.7655724">
        <ele>600.4807129</ele>
        <time>2010-11-06T13:40:39Z</time>
      </trkpt>
      <trkpt lat="45.0808204" lon="7.7656239">
        <ele>602.8837891</ele>
        <time>2010-11-06T13:40:59Z</time>
      </trkpt>
      <trkpt lat="45.0806386" lon="7.7656530">
        <ele>606.2485352</ele>
        <time>2010-11-06T13:41:22Z</time>
      </trkpt>
      <trkpt lat="45.0805367" lon="7.7655982">
        <ele>608.1713867</ele>
        <time>2010-11-06T13:41:32Z</time>
      </trkpt>
      <trkpt lat="45.0804993" lon="7.7655781">
        <ele>608.6518555</ele>
        <time>2010-11-06T13:41:36Z</time>
      </trkpt>
      <trkpt lat="45.0803571" lon="7.7656120">
        <ele>610.5744629</ele>
        <time>2010-11-06T13:41:56Z</time>
      </trkpt>
      <trkpt lat="45.0804036" lon="7.7656278">
        <ele>611.0551758</ele>
        <time>2010-11-06T13:42:27Z</time>
      </trkpt>
      <trkpt lat="45.0805016" lon="7.7657406">
        <ele>613.9389648</ele>
        <time>2010-11-06T13:42:46Z</time>
      </trkpt>
      <trkpt lat="45.0805024" lon="7.7657805">
        <ele>613.9389648</ele>
        <time>2010-11-06T13:42:49Z</time>
      </trkpt>
      <trkpt lat="45.0804998" lon="7.7658173">
        <ele>614.9003906</ele>
        <time>2010-11-06T13:42:52Z</time>
      </trkpt>
      <trkpt lat="45.0804363" lon="7.7658942">
        <ele>615.8618164</ele>
        <time>2010-11-06T13:43:01Z</time>
      </trkpt>
      <trkpt lat="45.0804093" lon="7.7658859">
        <ele>616.3422852</ele>
        <time>2010-11-06T13:43:03Z</time>
      </trkpt>
      <trkpt lat="45.0803840" lon="7.7658793">
        <ele>617.3037109</ele>
        <time>2010-11-06T13:43:08Z</time>
      </trkpt>
      <trkpt lat="45.0802554" lon="7.7657900">
        <ele>618.7456055</ele>
        <time>2010-11-06T13:43:27Z</time>
      </trkpt>
      <trkpt lat="45.0802456" lon="7.7657875">
        <ele>619.2263184</ele>
        <time>2010-11-06T13:43:28Z</time>
      </trkpt>
      <trkpt lat="45.0801986" lon="7.7658050">
        <ele>620.6684570</ele>
        <time>2010-11-06T13:43:46Z</time>
      </trkpt>
      <trkpt lat="45.0802169" lon="7.7658210">
        <ele>620.6684570</ele>
        <time>2010-11-06T13:43:59Z</time>
      </trkpt>
      <trkpt lat="45.0802457" lon="7.7658609">
        <ele>621.1491699</ele>
        <time>2010-11-06T13:44:03Z</time>
      </trkpt>
      <trkpt lat="45.0804096" lon="7.7659649">
        <ele>622.1103516</ele>
        <time>2010-11-06T13:44:21Z</time>
      </trkpt>
      <trkpt lat="45.0805037" lon="7.7660008">
        <ele>623.0717773</ele>
        <time>2010-11-06T13:44:34Z</time>
      </trkpt>
      <trkpt lat="45.0806679" lon="7.7661371">
        <ele>624.5136719</ele>
        <time>2010-11-06T13:44:53Z</time>
      </trkpt>
      <trkpt lat="45.0808368" lon="7.7663116">
        <ele>626.4362793</ele>
        <time>2010-11-06T13:45:12Z</time>
      </trkpt>
      <trkpt lat="45.0809892" lon="7.7663703">
        <ele>628.3588867</ele>
        <time>2010-11-06T13:45:25Z</time>
      </trkpt>
      <trkpt lat="45.0811451" lon="7.7663547">
        <ele>629.3200684</ele>
        <time>2010-11-06T13:45:45Z</time>
      </trkpt>
      <trkpt lat="45.0812108" lon="7.7663230">
        <ele>632.6848145</ele>
        <time>2010-11-06T13:45:58Z</time>
      </trkpt>
      <trkpt lat="45.0812364" lon="7.7663231">
        <ele>632.6848145</ele>
        <time>2010-11-06T13:46:00Z</time>
      </trkpt>
      <trkpt lat="45.0812543" lon="7.7663438">
        <ele>633.6459961</ele>
        <time>2010-11-06T13:46:33Z</time>
      </trkpt>
      <trkpt lat="45.0812894" lon="7.7663545">
        <ele>635.5686035</ele>
        <time>2010-11-06T13:46:48Z</time>
      </trkpt>
      <trkpt lat="45.0814231" lon="7.7664691">
        <ele>637.0107422</ele>
        <time>2010-11-06T13:47:08Z</time>
      </trkpt>
      <trkpt lat="45.0813978" lon="7.7664838">
        <ele>639.8947754</ele>
        <time>2010-11-06T13:47:23Z</time>
      </trkpt>
      <trkpt lat="45.0813765" lon="7.7664768">
        <ele>640.3754883</ele>
        <time>2010-11-06T13:47:28Z</time>
      </trkpt>
      <trkpt lat="45.0811906" lon="7.7665705">
        <ele>643.7399902</ele>
        <time>2010-11-06T13:47:51Z</time>
      </trkpt>
      <trkpt lat="45.0811555" lon="7.7665860">
        <ele>644.2207031</ele>
        <time>2010-11-06T13:47:54Z</time>
      </trkpt>
      <trkpt lat="45.0811173" lon="7.7665956">
        <ele>644.7011719</ele>
        <time>2010-11-06T13:47:58Z</time>
      </trkpt>
      <trkpt lat="45.0809716" lon="7.7667346">
        <ele>647.1044922</ele>
        <time>2010-11-06T13:48:15Z</time>
      </trkpt>
      <trkpt lat="45.0807972" lon="7.7667820">
        <ele>649.0270996</ele>
        <time>2010-11-06T13:48:33Z</time>
      </trkpt>
      <trkpt lat="45.0807458" lon="7.7667758">
        <ele>649.5078125</ele>
        <time>2010-11-06T13:48:37Z</time>
      </trkpt>
      <trkpt lat="45.0806118" lon="7.7668115">
        <ele>651.9111328</ele>
        <time>2010-11-06T13:48:50Z</time>
      </trkpt>
      <trkpt lat="45.0803990" lon="7.7668727">
        <ele>654.3146973</ele>
        <time>2010-11-06T13:49:13Z</time>
      </trkpt>
      <trkpt lat="45.0802504" lon="7.7668518">
        <ele>656.2370605</ele>
        <time>2010-11-06T13:49:32Z</time>
      </trkpt>
      <trkpt lat="45.0802897" lon="7.7669201">
        <ele>657.6791992</ele>
        <time>2010-11-06T13:49:42Z</time>
      </trkpt>
      <trkpt lat="45.0804384" lon="7.7669498">
        <ele>658.1599121</ele>
        <time>2010-11-06T13:50:06Z</time>
      </trkpt>
      <trkpt lat="45.0805741" lon="7.7670249">
        <ele>658.1599121</ele>
        <time>2010-11-06T13:50:26Z</time>
      </trkpt>
      <trkpt lat="45.0806150" lon="7.7671163">
        <ele>658.1599121</ele>
        <time>2010-11-06T13:50:35Z</time>
      </trkpt>
      <trkpt lat="45.0806608" lon="7.7673144">
        <ele>662.0051270</ele>
        <time>2010-11-06T13:50:54Z</time>
      </trkpt>
      <trkpt lat="45.0806935" lon="7.7673950">
        <ele>662.0051270</ele>
        <time>2010-11-06T13:51:30Z</time>
      </trkpt>
      <trkpt lat="45.0807552" lon="7.7675390">
        <ele>662.4855957</ele>
        <time>2010-11-06T13:52:04Z</time>
      </trkpt>
      <trkpt lat="45.0807491" lon="7.7675051">
        <ele>662.0051270</ele>
        <time>2010-11-06T13:54:57Z</time>
      </trkpt>
      <trkpt lat="45.0807464" lon="7.7674828">
        <ele>662.9663086</ele>
        <time>2010-11-06T13:55:38Z</time>
      </trkpt>
      <trkpt lat="45.0807151" lon="7.7673654">
        <ele>663.4470215</ele>
        <time>2010-11-06T13:57:13Z</time>
      </trkpt>
      <trkpt lat="45.0806897" lon="7.7673416">
        <ele>663.9274902</ele>
        <time>2010-11-06T13:58:04Z</time>
      </trkpt>
      <trkpt lat="45.0807178" lon="7.7673134">
        <ele>663.4470215</ele>
        <time>2010-11-06T13:58:57Z</time>
      </trkpt>
      <trkpt lat="45.0806551" lon="7.7672581">
        <ele>663.4470215</ele>
        <time>2010-11-06T14:00:07Z</time>
      </trkpt>
      <trkpt lat="45.0806476" lon="7.7672036">
        <ele>660.5629883</ele>
        <time>2010-11-06T14:10:43Z</time>
      </trkpt>
      <trkpt lat="45.0806458" lon="7.7670574">
        <ele>660.5629883</ele>
        <time>2010-11-06T14:11:43Z</time>
      </trkpt>
      <trkpt lat="45.0804286" lon="7.7669650">
        <ele>659.6018066</ele>
        <time>2010-11-06T14:14:30Z</time>
      </trkpt>
      <trkpt lat="45.0803020" lon="7.7669102">
        <ele>657.6791992</ele>
        <time>2010-11-06T14:15:12Z</time>
      </trkpt>
      <trkpt lat="45.0802277" lon="7.7667640">
        <ele>658.1599121</ele>
        <time>2010-11-06T14:16:09Z</time>
      </trkpt>
      <trkpt lat="45.0802415" lon="7.7667752">
        <ele>658.1599121</ele>
        <time>2010-11-06T14:16:46Z</time>
      </trkpt>
      <trkpt lat="45.0803818" lon="7.7668297">
        <ele>656.7177734</ele>
        <time>2010-11-06T14:17:50Z</time>
      </trkpt>
      <trkpt lat="45.0805779" lon="7.7668006">
        <ele>654.3146973</ele>
        <time>2010-11-06T14:18:12Z</time>
      </trkpt>
      <trkpt lat="45.0808149" lon="7.7667913">
        <ele>651.9111328</ele>
        <time>2010-11-06T14:18:33Z</time>
      </trkpt>
      <trkpt lat="45.0810283" lon="7.7667069">
        <ele>649.0270996</ele>
        <time>2010-11-06T14:18:54Z</time>
      </trkpt>
      <trkpt lat="45.0812224" lon="7.7665434">
        <ele>646.1433105</ele>
        <time>2010-11-06T14:19:14Z</time>
      </trkpt>
      <trkpt lat="45.0813339" lon="7.7665344">
        <ele>643.7399902</ele>
        <time>2010-11-06T14:19:42Z</time>
      </trkpt>
      <trkpt lat="45.0814439" lon="7.7664686">
        <ele>640.3754883</ele>
        <time>2010-11-06T14:20:03Z</time>
      </trkpt>
      <trkpt lat="45.0813866" lon="7.7664037">
        <ele>639.4140625</ele>
        <time>2010-11-06T14:20:18Z</time>
      </trkpt>
      <trkpt lat="45.0812071" lon="7.7663464">
        <ele>637.4914551</ele>
        <time>2010-11-06T14:20:39Z</time>
      </trkpt>
      <trkpt lat="45.0811614" lon="7.7663556">
        <ele>634.1267090</ele>
        <time>2010-11-06T14:21:00Z</time>
      </trkpt>
      <trkpt lat="45.0811184" lon="7.7663577">
        <ele>633.1652832</ele>
        <time>2010-11-06T14:21:06Z</time>
      </trkpt>
      <trkpt lat="45.0809059" lon="7.7663726">
        <ele>632.2041016</ele>
        <time>2010-11-06T14:21:28Z</time>
      </trkpt>
      <trkpt lat="45.0808862" lon="7.7663549">
        <ele>631.7233887</ele>
        <time>2010-11-06T14:21:31Z</time>
      </trkpt>
      <trkpt lat="45.0807908" lon="7.7662290">
        <ele>630.2814941</ele>
        <time>2010-11-06T14:21:44Z</time>
      </trkpt>
      <trkpt lat="45.0806845" lon="7.7661194">
        <ele>629.3200684</ele>
        <time>2010-11-06T14:22:01Z</time>
      </trkpt>
      <trkpt lat="45.0805704" lon="7.7660446">
        <ele>627.8781738</ele>
        <time>2010-11-06T14:22:19Z</time>
      </trkpt>
      <trkpt lat="45.0803662" lon="7.7659073">
        <ele>626.4362793</ele>
        <time>2010-11-06T14:22:41Z</time>
      </trkpt>
      <trkpt lat="45.0801526" lon="7.7657357">
        <ele>625.4748535</ele>
        <time>2010-11-06T14:23:21Z</time>
      </trkpt>
      <trkpt lat="45.0803954" lon="7.7658084">
        <ele>623.0717773</ele>
        <time>2010-11-06T14:24:29Z</time>
      </trkpt>
      <trkpt lat="45.0804844" lon="7.7658528">
        <ele>619.7070313</ele>
        <time>2010-11-06T14:24:42Z</time>
      </trkpt>
      <trkpt lat="45.0803767" lon="7.7656543">
        <ele>617.7841797</ele>
        <time>2010-11-06T14:25:08Z</time>
      </trkpt>
      <trkpt lat="45.0804571" lon="7.7655427">
        <ele>613.9389648</ele>
        <time>2010-11-06T14:25:32Z</time>
      </trkpt>
      <trkpt lat="45.0806886" lon="7.7655857">
        <ele>610.5744629</ele>
        <time>2010-11-06T14:25:58Z</time>
      </trkpt>
      <trkpt lat="45.0807694" lon="7.7655968">
        <ele>609.6132813</ele>
        <time>2010-11-06T14:26:05Z</time>
      </trkpt>
      <trkpt lat="45.0809020" lon="7.7655692">
        <ele>608.1713867</ele>
        <time>2010-11-06T14:26:18Z</time>
      </trkpt>
      <trkpt lat="45.0809673" lon="7.7655755">
        <ele>608.6518555</ele>
        <time>2010-11-06T14:26:24Z</time>
      </trkpt>
      <trkpt lat="45.0810163" lon="7.7655273">
        <ele>605.2873535</ele>
        <time>2010-11-06T14:26:44Z</time>
      </trkpt>
      <trkpt lat="45.0809183" lon="7.7653946">
        <ele>603.8452148</ele>
        <time>2010-11-06T14:27:15Z</time>
      </trkpt>
      <trkpt lat="45.0809527" lon="7.7653672">
        <ele>604.3261719</ele>
        <time>2010-11-06T14:28:09Z</time>
      </trkpt>
      <trkpt lat="45.0806857" lon="7.7651415">
        <ele>600.9611816</ele>
        <time>2010-11-06T14:31:31Z</time>
      </trkpt>
      <trkpt lat="45.0804610" lon="7.7649992">
        <ele>599.0385742</ele>
        <time>2010-11-06T14:32:02Z</time>
      </trkpt>
      <trkpt lat="45.0802627" lon="7.7647624">
        <ele>596.6354980</ele>
        <time>2010-11-06T14:32:33Z</time>
      </trkpt>
      <trkpt lat="45.0801137" lon="7.7646100">
        <ele>593.2707520</ele>
        <time>2010-11-06T14:32:58Z</time>
      </trkpt>
      <trkpt lat="45.0800042" lon="7.7644287">
        <ele>589.9062500</ele>
        <time>2010-11-06T14:33:28Z</time>
      </trkpt>
      <trkpt lat="45.0799596" lon="7.7642589">
        <ele>587.0219727</ele>
        <time>2010-11-06T14:33:47Z</time>
      </trkpt>
      <trkpt lat="45.0799155" lon="7.7640815">
        <ele>584.1381836</ele>
        <time>2010-11-06T14:34:04Z</time>
      </trkpt>
      <trkpt lat="45.0800220" lon="7.7641158">
        <ele>580.7736816</ele>
        <time>2010-11-06T14:34:30Z</time>
      </trkpt>
      <trkpt lat="45.0802468" lon="7.7642914">
        <ele>577.4091797</ele>
        <time>2010-11-06T14:34:56Z</time>
      </trkpt>
      <trkpt lat="45.0804892" lon="7.7642750">
        <ele>576.9284668</ele>
        <time>2010-11-06T14:35:23Z</time>
      </trkpt>
      <trkpt lat="45.0808118" lon="7.7644108">
        <ele>575.4863281</ele>
        <time>2010-11-06T14:35:56Z</time>
      </trkpt>
      <trkpt lat="45.0811173" lon="7.7645444">
        <ele>572.6025391</ele>
        <time>2010-11-06T14:36:29Z</time>
      </trkpt>
      <trkpt lat="45.0813650" lon="7.7645136">
        <ele>569.2377930</ele>
        <time>2010-11-06T14:36:52Z</time>
      </trkpt>
      <trkpt lat="45.0816552" lon="7.7645066">
        <ele>567.3151855</ele>
        <time>2010-11-06T14:37:20Z</time>
      </trkpt>
      <trkpt lat="45.0816726" lon="7.7644648">
        <ele>566.3537598</ele>
        <time>2010-11-06T14:37:35Z</time>
      </trkpt>
      <trkpt lat="45.0815544" lon="7.7643220">
        <ele>563.9504395</ele>
        <time>2010-11-06T14:37:55Z</time>
      </trkpt>
      <trkpt lat="45.0814002" lon="7.7641619">
        <ele>560.5859375</ele>
        <time>2010-11-06T14:38:18Z</time>
      </trkpt>
      <trkpt lat="45.0813188" lon="7.7640679">
        <ele>557.7021484</ele>
        <time>2010-11-06T14:38:40Z</time>
      </trkpt>
      <trkpt lat="45.0812619" lon="7.7639386">
        <ele>554.3374023</ele>
        <time>2010-11-06T14:39:04Z</time>
      </trkpt>
      <trkpt lat="45.0811578" lon="7.7638298">
        <ele>550.9726563</ele>
        <time>2010-11-06T14:39:26Z</time>
      </trkpt>
      <trkpt lat="45.0810742" lon="7.7637655">
        <ele>547.6081543</ele>
        <time>2010-11-06T14:39:45Z</time>
      </trkpt>
      <trkpt lat="45.0809107" lon="7.7636078">
        <ele>544.7242432</ele>
        <time>2010-11-06T14:40:01Z</time>
      </trkpt>
      <trkpt lat="45.0807480" lon="7.7634615">
        <ele>541.8402100</ele>
        <time>2010-11-06T14:40:29Z</time>
      </trkpt>
      <trkpt lat="45.0806602" lon="7.7632387">
        <ele>538.4757080</ele>
        <time>2010-11-06T14:40:51Z</time>
      </trkpt>
      <trkpt lat="45.0806222" lon="7.7630656">
        <ele>535.5915527</ele>
        <time>2010-11-06T14:41:06Z</time>
      </trkpt>
      <trkpt lat="45.0805341" lon="7.7627675">
        <ele>536.0723877</ele>
        <time>2010-11-06T14:41:28Z</time>
      </trkpt>
      <trkpt lat="45.0803384" lon="7.7629039">
        <ele>536.5531006</ele>
        <time>2010-11-06T14:41:46Z</time>
      </trkpt>
      <trkpt lat="45.0802759" lon="7.7629070">
        <ele>536.5531006</ele>
        <time>2010-11-06T14:41:54Z</time>
      </trkpt>
      <trkpt lat="45.0801343" lon="7.7628453">
        <ele>537.5142822</ele>
        <time>2010-11-06T14:42:07Z</time>
      </trkpt>
      <trkpt lat="45.0800111" lon="7.7627912">
        <ele>537.9949951</ele>
        <time>2010-11-06T14:42:17Z</time>
      </trkpt>
      <trkpt lat="45.0799867" lon="7.7627752">
        <ele>538.4757080</ele>
        <time>2010-11-06T14:42:19Z</time>
      </trkpt>
      <trkpt lat="45.0797836" lon="7.7626982">
        <ele>538.9562988</ele>
        <time>2010-11-06T14:42:37Z</time>
      </trkpt>
      <trkpt lat="45.0796411" lon="7.7628460">
        <ele>537.5142822</ele>
        <time>2010-11-06T14:42:54Z</time>
      </trkpt>
      <trkpt lat="45.0794702" lon="7.7630431">
        <ele>536.0723877</ele>
        <time>2010-11-06T14:43:18Z</time>
      </trkpt>
      <trkpt lat="45.0793916" lon="7.7629823">
        <ele>535.5915527</ele>
        <time>2010-11-06T14:43:50Z</time>
      </trkpt>
      <trkpt lat="45.0793226" lon="7.7628648">
        <ele>534.1496582</ele>
        <time>2010-11-06T14:44:17Z</time>
      </trkpt>
      <trkpt lat="45.0792072" lon="7.7628106">
        <ele>533.6689453</ele>
        <time>2010-11-06T14:44:41Z</time>
      </trkpt>
      <trkpt lat="45.0791087" lon="7.7627205">
        <ele>533.1883545</ele>
        <time>2010-11-06T14:45:05Z</time>
      </trkpt>
      <trkpt lat="45.0790292" lon="7.7625162">
        <ele>533.1883545</ele>
        <time>2010-11-06T14:45:33Z</time>
      </trkpt>
      <trkpt lat="45.0790268" lon="7.7624861">
        <ele>533.1883545</ele>
        <time>2010-11-06T14:45:35Z</time>
      </trkpt>
      <trkpt lat="45.0789760" lon="7.7621527">
        <ele>534.6303711</ele>
        <time>2010-11-06T14:45:54Z</time>
      </trkpt>
      <trkpt lat="45.0788827" lon="7.7619201">
        <ele>535.1109619</ele>
        <time>2010-11-06T14:46:12Z</time>
      </trkpt>
      <trkpt lat="45.0788391" lon="7.7617490">
        <ele>535.1109619</ele>
        <time>2010-11-06T14:46:22Z</time>
      </trkpt>
      <trkpt lat="45.0788470" lon="7.7615343">
        <ele>536.0723877</ele>
        <time>2010-11-06T14:46:36Z</time>
      </trkpt>
      <trkpt lat="45.0788750" lon="7.7613902">
        <ele>536.0723877</ele>
        <time>2010-11-06T14:46:46Z</time>
      </trkpt>
      <trkpt lat="45.0788683" lon="7.7612945">
        <ele>536.0723877</ele>
        <time>2010-11-06T14:46:51Z</time>
      </trkpt>
      <trkpt lat="45.0788729" lon="7.7611840">
        <ele>535.5915527</ele>
        <time>2010-11-06T14:46:57Z</time>
      </trkpt>
      <trkpt lat="45.0788602" lon="7.7611480">
        <ele>535.5915527</ele>
        <time>2010-11-06T14:46:59Z</time>
      </trkpt>
      <trkpt lat="45.0788804" lon="7.7610294">
        <ele>535.1109619</ele>
        <time>2010-11-06T14:47:06Z</time>
      </trkpt>
      <trkpt lat="45.0788181" lon="7.7607995">
        <ele>535.1109619</ele>
        <time>2010-11-06T14:47:24Z</time>
      </trkpt>
      <trkpt lat="45.0787931" lon="7.7606955">
        <ele>534.6303711</ele>
        <time>2010-11-06T14:47:44Z</time>
      </trkpt>
      <trkpt lat="45.0788139" lon="7.7605473">
        <ele>534.6303711</ele>
        <time>2010-11-06T14:48:14Z</time>
      </trkpt>
      <trkpt lat="45.0788587" lon="7.7602483">
        <ele>532.7077637</ele>
        <time>2010-11-06T14:48:36Z</time>
      </trkpt>
      <trkpt lat="45.0788480" lon="7.7602025">
        <ele>531.7463379</ele>
        <time>2010-11-06T14:49:12Z</time>
      </trkpt>
      <trkpt lat="45.0788487" lon="7.7601286">
        <ele>531.7463379</ele>
        <time>2010-11-06T14:49:16Z</time>
      </trkpt>
      <trkpt lat="45.0788493" lon="7.7600803">
        <ele>530.7851563</ele>
        <time>2010-11-06T14:49:19Z</time>
      </trkpt>
      <trkpt lat="45.0788476" lon="7.7600235">
        <ele>530.7851563</ele>
        <time>2010-11-06T14:49:23Z</time>
      </trkpt>
      <trkpt lat="45.0788570" lon="7.7597810">
        <ele>527.9010010</ele>
        <time>2010-11-06T14:49:41Z</time>
      </trkpt>
      <trkpt lat="45.0789698" lon="7.7596297">
        <ele>523.5751953</ele>
        <time>2010-11-06T14:50:02Z</time>
      </trkpt>
      <trkpt lat="45.0790589" lon="7.7595661">
        <ele>520.6912842</ele>
        <time>2010-11-06T14:50:20Z</time>
      </trkpt>
      <trkpt lat="45.0790201" lon="7.7594179">
        <ele>517.3266602</ele>
        <time>2010-11-06T14:50:35Z</time>
      </trkpt>
      <trkpt lat="45.0790065" lon="7.7593961">
        <ele>516.8459473</ele>
        <time>2010-11-06T14:50:37Z</time>
      </trkpt>
      <trkpt lat="45.0789270" lon="7.7593181">
        <ele>514.9233398</ele>
        <time>2010-11-06T14:50:45Z</time>
      </trkpt>
      <trkpt lat="45.0788123" lon="7.7592360">
        <ele>511.5587158</ele>
        <time>2010-11-06T14:50:59Z</time>
      </trkpt>
      <trkpt lat="45.0789463" lon="7.7591517">
        <ele>510.5972900</ele>
        <time>2010-11-06T14:51:21Z</time>
      </trkpt>
      <trkpt lat="45.0791973" lon="7.7592219">
        <ele>509.1553955</ele>
        <time>2010-11-06T14:51:48Z</time>
      </trkpt>
      <trkpt lat="45.0793929" lon="7.7592050">
        <ele>505.3101807</ele>
        <time>2010-11-06T14:52:06Z</time>
      </trkpt>
      <trkpt lat="45.0794944" lon="7.7592235">
        <ele>502.4261475</ele>
        <time>2010-11-06T14:52:27Z</time>
      </trkpt>
      <trkpt lat="45.0795658" lon="7.7592188">
        <ele>500.5035400</ele>
        <time>2010-11-06T14:52:34Z</time>
      </trkpt>
      <trkpt lat="45.0796773" lon="7.7591113">
        <ele>496.6583252</ele>
        <time>2010-11-06T14:52:46Z</time>
      </trkpt>
      <trkpt lat="45.0797645" lon="7.7589585">
        <ele>493.7742920</ele>
        <time>2010-11-06T14:53:00Z</time>
      </trkpt>
      <trkpt lat="45.0798665" lon="7.7586060">
        <ele>491.3709717</ele>
        <time>2010-11-06T14:53:27Z</time>
      </trkpt>
      <trkpt lat="45.0798580" lon="7.7586104">
        <ele>491.8516846</ele>
        <time>2010-11-06T14:54:46Z</time>
      </trkpt>
      <trkpt lat="45.0797580" lon="7.7586264">
        <ele>489.9290771</ele>
        <time>2010-11-06T14:55:58Z</time>
      </trkpt>
      <trkpt lat="45.0797071" lon="7.7586471">
        <ele>488.9677734</ele>
        <time>2010-11-06T14:56:02Z</time>
      </trkpt>
      <trkpt lat="45.0795738" lon="7.7586917">
        <ele>487.5256348</ele>
        <time>2010-11-06T14:56:15Z</time>
      </trkpt>
      <trkpt lat="45.0793868" lon="7.7586198">
        <ele>486.5644531</ele>
        <time>2010-11-06T14:56:36Z</time>
      </trkpt>
      <trkpt lat="45.0793978" lon="7.7586155">
        <ele>485.6030273</ele>
        <time>2010-11-06T14:57:07Z</time>
      </trkpt>
      <trkpt lat="45.0793337" lon="7.7586051">
        <ele>486.0837402</ele>
        <time>2010-11-06T14:57:41Z</time>
      </trkpt>
      <trkpt lat="45.0791642" lon="7.7585017">
        <ele>486.0837402</ele>
        <time>2010-11-06T14:57:58Z</time>
      </trkpt>
      <trkpt lat="45.0790001" lon="7.7584513">
        <ele>487.5256348</ele>
        <time>2010-11-06T14:58:12Z</time>
      </trkpt>
      <trkpt lat="45.0787523" lon="7.7583058">
        <ele>489.4483643</ele>
        <time>2010-11-06T14:58:35Z</time>
      </trkpt>
      <trkpt lat="45.0787023" lon="7.7582766">
        <ele>490.4097900</ele>
        <time>2010-11-06T14:58:43Z</time>
      </trkpt>
      <trkpt lat="45.0785697" lon="7.7582116">
        <ele>492.8129883</ele>
        <time>2010-11-06T14:58:56Z</time>
      </trkpt>
      <trkpt lat="45.0784508" lon="7.7581592">
        <ele>494.7355957</ele>
        <time>2010-11-06T14:59:16Z</time>
      </trkpt>
      <trkpt lat="45.0784555" lon="7.7581578">
        <ele>493.7742920</ele>
        <time>2010-11-06T14:59:57Z</time>
      </trkpt>
      <trkpt lat="45.0784713" lon="7.7577708">
        <ele>492.3323975</ele>
        <time>2010-11-06T15:00:19Z</time>
      </trkpt>
      <trkpt lat="45.0784728" lon="7.7573565">
        <ele>490.8903809</ele>
        <time>2010-11-06T15:00:41Z</time>
      </trkpt>
      <trkpt lat="45.0784778" lon="7.7569787">
        <ele>489.9290771</ele>
        <time>2010-11-06T15:01:02Z</time>
      </trkpt>
      <trkpt lat="45.0784755" lon="7.7568574">
        <ele>489.4483643</ele>
        <time>2010-11-06T15:01:09Z</time>
      </trkpt>
      <trkpt lat="45.0785140" lon="7.7565294">
        <ele>487.5256348</ele>
        <time>2010-11-06T15:01:30Z</time>
      </trkpt>
      <trkpt lat="45.0785410" lon="7.7563720">
        <ele>487.5256348</ele>
        <time>2010-11-06T15:01:46Z</time>
      </trkpt>
      <trkpt lat="45.0785690" lon="7.7562182">
        <ele>487.0450439</ele>
        <time>2010-11-06T15:01:55Z</time>
      </trkpt>
      <trkpt lat="45.0786033" lon="7.7559058">
        <ele>485.6030273</ele>
        <time>2010-11-06T15:02:13Z</time>
      </trkpt>
      <trkpt lat="45.0786116" lon="7.7558305">
        <ele>485.6030273</ele>
        <time>2010-11-06T15:02:17Z</time>
      </trkpt>
      <trkpt lat="45.0785499" lon="7.7554434">
        <ele>483.6804199</ele>
        <time>2010-11-06T15:02:37Z</time>
      </trkpt>
      <trkpt lat="45.0785673" lon="7.7550244">
        <ele>482.7192383</ele>
        <time>2010-11-06T15:02:57Z</time>
      </trkpt>
      <trkpt lat="45.0785943" lon="7.7548315">
        <ele>481.7578125</ele>
        <time>2010-11-06T15:03:07Z</time>
      </trkpt>
      <trkpt lat="45.0785979" lon="7.7545516">
        <ele>480.7966309</ele>
        <time>2010-11-06T15:03:22Z</time>
      </trkpt>
      <trkpt lat="45.0784479" lon="7.7541901">
        <ele>477.9124756</ele>
        <time>2010-11-06T15:03:41Z</time>
      </trkpt>
      <trkpt lat="45.0784375" lon="7.7541544">
        <ele>477.9124756</ele>
        <time>2010-11-06T15:03:43Z</time>
      </trkpt>
      <trkpt lat="45.0783128" lon="7.7537732">
        <ele>476.4705811</ele>
        <time>2010-11-06T15:04:04Z</time>
      </trkpt>
      <trkpt lat="45.0782697" lon="7.7535841">
        <ele>475.9898682</ele>
        <time>2010-11-06T15:04:26Z</time>
      </trkpt>
      <trkpt lat="45.0782135" lon="7.7535105">
        <ele>473.1060791</ele>
        <time>2010-11-06T15:04:53Z</time>
      </trkpt>
      <trkpt lat="45.0780493" lon="7.7534949">
        <ele>469.7413330</ele>
        <time>2010-11-06T15:05:08Z</time>
      </trkpt>
      <trkpt lat="45.0778903" lon="7.7535738">
        <ele>466.8574219</ele>
        <time>2010-11-06T15:05:27Z</time>
      </trkpt>
      <trkpt lat="45.0777295" lon="7.7536364">
        <ele>463.4927979</ele>
        <time>2010-11-06T15:05:47Z</time>
      </trkpt>
      <trkpt lat="45.0776169" lon="7.7537075">
        <ele>460.6087646</ele>
        <time>2010-11-06T15:06:05Z</time>
      </trkpt>
      <trkpt lat="45.0775112" lon="7.7537441">
        <ele>457.2442627</ele>
        <time>2010-11-06T15:06:21Z</time>
      </trkpt>
      <trkpt lat="45.0774615" lon="7.7538726">
        <ele>454.3602295</ele>
        <time>2010-11-06T15:06:34Z</time>
      </trkpt>
      <trkpt lat="45.0775344" lon="7.7540844">
        <ele>451.4763184</ele>
        <time>2010-11-06T15:06:54Z</time>
      </trkpt>
      <trkpt lat="45.0775360" lon="7.7542790">
        <ele>449.5537109</ele>
        <time>2010-11-06T15:07:15Z</time>
      </trkpt>
      <trkpt lat="45.0775187" lon="7.7545344">
        <ele>445.7083740</ele>
        <time>2010-11-06T15:07:29Z</time>
      </trkpt>
      <trkpt lat="45.0774678" lon="7.7546698">
        <ele>442.8244629</ele>
        <time>2010-11-06T15:07:45Z</time>
      </trkpt>
      <trkpt lat="45.0774210" lon="7.7547661">
        <ele>439.4597168</ele>
        <time>2010-11-06T15:08:00Z</time>
      </trkpt>
      <trkpt lat="45.0773374" lon="7.7547924">
        <ele>437.5371094</ele>
        <time>2010-11-06T15:08:09Z</time>
      </trkpt>
      <trkpt lat="45.0772233" lon="7.7547493">
        <ele>435.1339111</ele>
        <time>2010-11-06T15:08:24Z</time>
      </trkpt>
      <trkpt lat="45.0771190" lon="7.7545523">
        <ele>430.8079834</ele>
        <time>2010-11-06T15:08:46Z</time>
      </trkpt>
      <trkpt lat="45.0769641" lon="7.7544592">
        <ele>427.9239502</ele>
        <time>2010-11-06T15:09:00Z</time>
      </trkpt>
      <trkpt lat="45.0768176" lon="7.7544296">
        <ele>425.5207520</ele>
        <time>2010-11-06T15:09:17Z</time>
      </trkpt>
      <trkpt lat="45.0766303" lon="7.7543005">
        <ele>421.1948242</ele>
        <time>2010-11-06T15:09:35Z</time>
      </trkpt>
      <trkpt lat="45.0764464" lon="7.7542271">
        <ele>418.3107910</ele>
        <time>2010-11-06T15:09:53Z</time>
      </trkpt>
      <trkpt lat="45.0763387" lon="7.7541758">
        <ele>415.4268799</ele>
        <time>2010-11-06T15:10:11Z</time>
      </trkpt>
      <trkpt lat="45.0762803" lon="7.7540296">
        <ele>416.3881836</ele>
        <time>2010-11-06T15:10:50Z</time>
      </trkpt>
      <trkpt lat="45.0763268" lon="7.7538281">
        <ele>418.7915039</ele>
        <time>2010-11-06T15:11:10Z</time>
      </trkpt>
      <trkpt lat="45.0763513" lon="7.7537307">
        <ele>418.7915039</ele>
        <time>2010-11-06T15:11:16Z</time>
      </trkpt>
      <trkpt lat="45.0763463" lon="7.7536183">
        <ele>418.7915039</ele>
        <time>2010-11-06T15:11:21Z</time>
      </trkpt>
      <trkpt lat="45.0763638" lon="7.7534049">
        <ele>418.3107910</ele>
        <time>2010-11-06T15:11:35Z</time>
      </trkpt>
      <trkpt lat="45.0763934" lon="7.7533131">
        <ele>417.8302002</ele>
        <time>2010-11-06T15:11:44Z</time>
      </trkpt>
      <trkpt lat="45.0763488" lon="7.7532194">
        <ele>414.4654541</ele>
        <time>2010-11-06T15:12:00Z</time>
      </trkpt>
      <trkpt lat="45.0762976" lon="7.7532081">
        <ele>413.5042725</ele>
        <time>2010-11-06T15:12:06Z</time>
      </trkpt>
      <trkpt lat="45.0762522" lon="7.7531140">
        <ele>412.0622559</ele>
        <time>2010-11-06T15:12:15Z</time>
      </trkpt>
      <trkpt lat="45.0760648" lon="7.7529885">
        <ele>408.6976318</ele>
        <time>2010-11-06T15:12:35Z</time>
      </trkpt>
      <trkpt lat="45.0759452" lon="7.7529291">
        <ele>407.2556152</ele>
        <time>2010-11-06T15:12:46Z</time>
      </trkpt>
      <trkpt lat="45.0757638" lon="7.7528086">
        <ele>403.8911133</ele>
        <time>2010-11-06T15:13:04Z</time>
      </trkpt>
      <trkpt lat="45.0757144" lon="7.7526610">
        <ele>400.5264893</ele>
        <time>2010-11-06T15:13:21Z</time>
      </trkpt>
      <trkpt lat="45.0758398" lon="7.7526001">
        <ele>397.6424561</ele>
        <time>2010-11-06T15:13:38Z</time>
      </trkpt>
      <trkpt lat="45.0759778" lon="7.7526198">
        <ele>394.7585449</ele>
        <time>2010-11-06T15:13:51Z</time>
      </trkpt>
      <trkpt lat="45.0759980" lon="7.7526232">
        <ele>394.7585449</ele>
        <time>2010-11-06T15:13:53Z</time>
      </trkpt>
      <trkpt lat="45.0762471" lon="7.7526442">
        <ele>392.8359375</ele>
        <time>2010-11-06T15:14:12Z</time>
      </trkpt>
      <trkpt lat="45.0763589" lon="7.7526384">
        <ele>391.8745117</ele>
        <time>2010-11-06T15:14:23Z</time>
      </trkpt>
      <trkpt lat="45.0764712" lon="7.7525970">
        <ele>390.4326172</ele>
        <time>2010-11-06T15:14:31Z</time>
      </trkpt>
      <trkpt lat="45.0765143" lon="7.7525209">
        <ele>388.9906006</ele>
        <time>2010-11-06T15:14:35Z</time>
      </trkpt>
      <trkpt lat="45.0764288" lon="7.7521259">
        <ele>388.0292969</ele>
        <time>2010-11-06T15:14:57Z</time>
      </trkpt>
      <trkpt lat="45.0763851" lon="7.7518651">
        <ele>387.0679932</ele>
        <time>2010-11-06T15:15:12Z</time>
      </trkpt>
      <trkpt lat="45.0763783" lon="7.7517238">
        <ele>386.5874023</ele>
        <time>2010-11-06T15:15:18Z</time>
      </trkpt>
      <trkpt lat="45.0764083" lon="7.7515987">
        <ele>386.5874023</ele>
        <time>2010-11-06T15:15:25Z</time>
      </trkpt>
      <trkpt lat="45.0764213" lon="7.7514788">
        <ele>386.1066895</ele>
        <time>2010-11-06T15:15:45Z</time>
      </trkpt>
      <trkpt lat="45.0764370" lon="7.7514282">
        <ele>385.6259766</ele>
        <time>2010-11-06T15:15:49Z</time>
      </trkpt>
      <trkpt lat="45.0764936" lon="7.7512103">
        <ele>383.2226563</ele>
        <time>2010-11-06T15:16:10Z</time>
      </trkpt>
      <trkpt lat="45.0766585" lon="7.7510221">
        <ele>380.8194580</ele>
        <time>2010-11-06T15:16:41Z</time>
      </trkpt>
      <trkpt lat="45.0767076" lon="7.7509013">
        <ele>379.8580322</ele>
        <time>2010-11-06T15:16:59Z</time>
      </trkpt>
      <trkpt lat="45.0767432" lon="7.7508855">
        <ele>379.8580322</ele>
        <time>2010-11-06T15:17:32Z</time>
      </trkpt>
      <trkpt lat="45.0767476" lon="7.7507216">
        <ele>376.4935303</ele>
        <time>2010-11-06T15:17:51Z</time>
      </trkpt>
      <trkpt lat="45.0767034" lon="7.7505386">
        <ele>373.6094971</ele>
        <time>2010-11-06T15:18:06Z</time>
      </trkpt>
      <trkpt lat="45.0766979" lon="7.7505289">
        <ele>373.6094971</ele>
        <time>2010-11-06T15:18:07Z</time>
      </trkpt>
      <trkpt lat="45.0765900" lon="7.7502540">
        <ele>369.7642822</ele>
        <time>2010-11-06T15:18:28Z</time>
      </trkpt>
      <trkpt lat="45.0764756" lon="7.7497349">
        <ele>366.8802490</ele>
        <time>2010-11-06T15:18:58Z</time>
      </trkpt>
      <trkpt lat="45.0765833" lon="7.7495575">
        <ele>366.3995361</ele>
        <time>2010-11-06T15:19:18Z</time>
      </trkpt>
      <trkpt lat="45.0765717" lon="7.7494675">
        <ele>365.4383545</ele>
        <time>2010-11-06T15:19:28Z</time>
      </trkpt>
      <trkpt lat="45.0764482" lon="7.7492609">
        <ele>365.4383545</ele>
        <time>2010-11-06T15:19:46Z</time>
      </trkpt>
      <trkpt lat="45.0764033" lon="7.7491264">
        <ele>365.4383545</ele>
        <time>2010-11-06T15:19:55Z</time>
      </trkpt>
      <trkpt lat="45.0763753" lon="7.7490819">
        <ele>364.9576416</ele>
        <time>2010-11-06T15:20:00Z</time>
      </trkpt>
      <trkpt lat="45.0762703" lon="7.7488992">
        <ele>363.5157471</ele>
        <time>2010-11-06T15:20:15Z</time>
      </trkpt>
      <trkpt lat="45.0761655" lon="7.7487640">
        <ele>362.0737305</ele>
        <time>2010-11-06T15:20:25Z</time>
      </trkpt>
      <trkpt lat="45.0760980" lon="7.7484522">
        <ele>360.1511230</ele>
        <time>2010-11-06T15:20:44Z</time>
      </trkpt>
      <trkpt lat="45.0760897" lon="7.7483450">
        <ele>358.7089844</ele>
        <time>2010-11-06T15:20:51Z</time>
      </trkpt>
      <trkpt lat="45.0761233" lon="7.7480990">
        <ele>355.3444824</ele>
        <time>2010-11-06T15:21:06Z</time>
      </trkpt>
      <trkpt lat="45.0761280" lon="7.7480926">
        <ele>354.8637695</ele>
        <time>2010-11-06T15:21:07Z</time>
      </trkpt>
      <trkpt lat="45.0761410" lon="7.7479575">
        <ele>353.4218750</ele>
        <time>2010-11-06T15:21:15Z</time>
      </trkpt>
      <trkpt lat="45.0762166" lon="7.7477558">
        <ele>351.4991455</ele>
        <time>2010-11-06T15:21:26Z</time>
      </trkpt>
      <trkpt lat="45.0764062" lon="7.7475930">
        <ele>350.0572510</ele>
        <time>2010-11-06T15:21:44Z</time>
      </trkpt>
      <trkpt lat="45.0764578" lon="7.7474074">
        <ele>346.6926270</ele>
        <time>2010-11-06T15:22:04Z</time>
      </trkpt>
      <trkpt lat="45.0763198" lon="7.7471348">
        <ele>345.2506104</ele>
        <time>2010-11-06T15:22:22Z</time>
      </trkpt>
      <trkpt lat="45.0762394" lon="7.7469545">
        <ele>345.2506104</ele>
        <time>2010-11-06T15:22:33Z</time>
      </trkpt>
      <trkpt lat="45.0762220" lon="7.7467828">
        <ele>344.2894287</ele>
        <time>2010-11-06T15:22:54Z</time>
      </trkpt>
      <trkpt lat="45.0761728" lon="7.7466310">
        <ele>343.3278809</ele>
        <time>2010-11-06T15:23:19Z</time>
      </trkpt>
      <trkpt lat="45.0761669" lon="7.7466511">
        <ele>339.9633789</ele>
        <time>2010-11-06T15:23:44Z</time>
      </trkpt>
      <trkpt lat="45.0761589" lon="7.7464835">
        <ele>337.0794678</ele>
        <time>2010-11-06T15:24:04Z</time>
      </trkpt>
      <trkpt lat="45.0761213" lon="7.7462962">
        <ele>333.7147217</ele>
        <time>2010-11-06T15:24:27Z</time>
      </trkpt>
      <trkpt lat="45.0761083" lon="7.7461684">
        <ele>330.3502197</ele>
        <time>2010-11-06T15:24:48Z</time>
      </trkpt>
      <trkpt lat="45.0761200" lon="7.7460076">
        <ele>326.9855957</ele>
        <time>2010-11-06T15:25:00Z</time>
      </trkpt>
      <trkpt lat="45.0760694" lon="7.7457129">
        <ele>325.5435791</ele>
        <time>2010-11-06T15:25:38Z</time>
      </trkpt>
      <trkpt lat="45.0760675" lon="7.7455954">
        <ele>322.1789551</ele>
        <time>2010-11-06T15:26:00Z</time>
      </trkpt>
      <trkpt lat="45.0760516" lon="7.7455392">
        <ele>318.8143311</ele>
        <time>2010-11-06T15:26:24Z</time>
      </trkpt>
      <trkpt lat="45.0760353" lon="7.7453611">
        <ele>315.4498291</ele>
        <time>2010-11-06T15:26:42Z</time>
      </trkpt>
      <trkpt lat="45.0760113" lon="7.7452194">
        <ele>312.0852051</ele>
        <time>2010-11-06T15:27:00Z</time>
      </trkpt>
      <trkpt lat="45.0759053" lon="7.7449757">
        <ele>309.6818848</ele>
        <time>2010-11-06T15:27:22Z</time>
      </trkpt>
      <trkpt lat="45.0758751" lon="7.7449028">
        <ele>306.7978516</ele>
        <time>2010-11-06T15:27:36Z</time>
      </trkpt>
      <trkpt lat="45.0758563" lon="7.7447712">
        <ele>303.4332275</ele>
        <time>2010-11-06T15:27:50Z</time>
      </trkpt>
      <trkpt lat="45.0758717" lon="7.7446319">
        <ele>300.5493164</ele>
        <time>2010-11-06T15:28:09Z</time>
      </trkpt>
      <trkpt lat="45.0758608" lon="7.7444433">
        <ele>297.1846924</ele>
        <time>2010-11-06T15:28:26Z</time>
      </trkpt>
      <trkpt lat="45.0758317" lon="7.7442098">
        <ele>293.8200684</ele>
        <time>2010-11-06T15:28:42Z</time>
      </trkpt>
      <trkpt lat="45.0758349" lon="7.7441910">
        <ele>291.8974609</ele>
        <time>2010-11-06T15:28:49Z</time>
      </trkpt>
      <trkpt lat="45.0758300" lon="7.7440246">
        <ele>288.5329590</ele>
        <time>2010-11-06T15:29:05Z</time>
      </trkpt>
      <trkpt lat="45.0758225" lon="7.7438419">
        <ele>287.0908203</ele>
        <time>2010-11-06T15:29:16Z</time>
      </trkpt>
      <trkpt lat="45.0758729" lon="7.7436729">
        <ele>284.2069092</ele>
        <time>2010-11-06T15:29:30Z</time>
      </trkpt>
      <trkpt lat="45.0758655" lon="7.7435223">
        <ele>283.2456055</ele>
        <time>2010-11-06T15:29:39Z</time>
      </trkpt>
      <trkpt lat="45.0758886" lon="7.7434529">
        <ele>281.3229980</ele>
        <time>2010-11-06T15:29:45Z</time>
      </trkpt>
      <trkpt lat="45.0759050" lon="7.7433861">
        <ele>280.8424072</ele>
        <time>2010-11-06T15:30:14Z</time>
      </trkpt>
      <trkpt lat="45.0759794" lon="7.7432617">
        <ele>277.4776611</ele>
        <time>2010-11-06T15:30:29Z</time>
      </trkpt>
      <trkpt lat="45.0760131" lon="7.7431875">
        <ele>276.0356445</ele>
        <time>2010-11-06T15:30:36Z</time>
      </trkpt>
      <trkpt lat="45.0760953" lon="7.7430977">
        <ele>272.6711426</ele>
        <time>2010-11-06T15:30:50Z</time>
      </trkpt>
      <trkpt lat="45.0763450" lon="7.7429100">
        <ele>269.7871094</ele>
        <time>2010-11-06T15:31:24Z</time>
      </trkpt>
      <trkpt lat="45.0762660" lon="7.7427618">
        <ele>269.3065186</ele>
        <time>2010-11-06T15:32:00Z</time>
      </trkpt>
      <trkpt lat="45.0761858" lon="7.7427199">
        <ele>267.8645020</ele>
        <time>2010-11-06T15:32:27Z</time>
      </trkpt>
      <trkpt lat="45.0761339" lon="7.7426856">
        <ele>266.9031982</ele>
        <time>2010-11-06T15:32:34Z</time>
      </trkpt>
      <trkpt lat="45.0759395" lon="7.7426013">
        <ele>264.0192871</ele>
        <time>2010-11-06T15:32:53Z</time>
      </trkpt>
      <trkpt lat="45.0757220" lon="7.7424461">
        <ele>260.6545410</ele>
        <time>2010-11-06T15:33:14Z</time>
      </trkpt>
      <trkpt lat="45.0756742" lon="7.7424058">
        <ele>260.1739502</ele>
        <time>2010-11-06T15:33:35Z</time>
      </trkpt>
      <trkpt lat="45.0756729" lon="7.7424037">
        <ele>260.1739502</ele>
        <time>2010-11-06T15:33:40Z</time>
      </trkpt>
      <trkpt lat="45.0754444" lon="7.7422375">
        <ele>256.3287354</ele>
        <time>2010-11-06T15:34:00Z</time>
      </trkpt>
      <trkpt lat="45.0754008" lon="7.7421142">
        <ele>256.3287354</ele>
        <time>2010-11-06T15:34:11Z</time>
      </trkpt>
      <trkpt lat="45.0754033" lon="7.7420125">
        <ele>255.8480225</ele>
        <time>2010-11-06T15:34:18Z</time>
      </trkpt>
      <trkpt lat="45.0754137" lon="7.7419431">
        <ele>255.8480225</ele>
        <time>2010-11-06T15:34:22Z</time>
      </trkpt>
      <trkpt lat="45.0754352" lon="7.7418515">
        <ele>255.3673096</ele>
        <time>2010-11-06T15:34:28Z</time>
      </trkpt>
      <trkpt lat="45.0754268" lon="7.7417002">
        <ele>255.8480225</ele>
        <time>2010-11-06T15:34:37Z</time>
      </trkpt>
      <trkpt lat="45.0754106" lon="7.7415388">
        <ele>255.3673096</ele>
        <time>2010-11-06T15:34:46Z</time>
      </trkpt>
      <trkpt lat="45.0754203" lon="7.7414721">
        <ele>255.3673096</ele>
        <time>2010-11-06T15:34:51Z</time>
      </trkpt>
      <trkpt lat="45.0754635" lon="7.7413007">
        <ele>254.4060059</ele>
        <time>2010-11-06T15:35:03Z</time>
      </trkpt>
      <trkpt lat="45.0756575" lon="7.7411979">
        <ele>253.9254150</ele>
        <time>2010-11-06T15:35:21Z</time>
      </trkpt>
      <trkpt lat="45.0758844" lon="7.7412027">
        <ele>252.9639893</ele>
        <time>2010-11-06T15:35:40Z</time>
      </trkpt>
      <trkpt lat="45.0760586" lon="7.7411262">
        <ele>252.0028076</ele>
        <time>2010-11-06T15:35:58Z</time>
      </trkpt>
      <trkpt lat="45.0760820" lon="7.7410772">
        <ele>252.0028076</ele>
        <time>2010-11-06T15:36:01Z</time>
      </trkpt>
      <trkpt lat="45.0761895" lon="7.7408918">
        <ele>251.5220947</ele>
        <time>2010-11-06T15:36:14Z</time>
      </trkpt>
      <trkpt lat="45.0761928" lon="7.7408582">
        <ele>251.5220947</ele>
        <time>2010-11-06T15:36:16Z</time>
      </trkpt>
      <trkpt lat="45.0762094" lon="7.7407051">
        <ele>251.0413818</ele>
        <time>2010-11-06T15:36:24Z</time>
      </trkpt>
      <trkpt lat="45.0762840" lon="7.7403742">
        <ele>250.0802002</ele>
        <time>2010-11-06T15:36:44Z</time>
      </trkpt>
      <trkpt lat="45.0763457" lon="7.7402047">
        <ele>249.5994873</ele>
        <time>2010-11-06T15:36:54Z</time>
      </trkpt>
      <trkpt lat="45.0763775" lon="7.7399935">
        <ele>248.6381836</ele>
        <time>2010-11-06T15:37:07Z</time>
      </trkpt>
      <trkpt lat="45.0763473" lon="7.7398972">
        <ele>248.6381836</ele>
        <time>2010-11-06T15:37:12Z</time>
      </trkpt>
      <trkpt lat="45.0762390" lon="7.7396097">
        <ele>248.1575928</ele>
        <time>2010-11-06T15:37:31Z</time>
      </trkpt>
      <trkpt lat="45.0761953" lon="7.7394689">
        <ele>248.1575928</ele>
        <time>2010-11-06T15:37:39Z</time>
      </trkpt>
      <trkpt lat="45.0761571" lon="7.7393123">
        <ele>247.6767578</ele>
        <time>2010-11-06T15:37:48Z</time>
      </trkpt>
      <trkpt lat="45.0761638" lon="7.7392495">
        <ele>248.1575928</ele>
        <time>2010-11-06T15:37:52Z</time>
      </trkpt>
      <trkpt lat="45.0762055" lon="7.7392031">
        <ele>248.1575928</ele>
        <time>2010-11-06T15:38:01Z</time>
      </trkpt>
      <trkpt lat="45.0762482" lon="7.7391661">
        <ele>247.6767578</ele>
        <time>2010-11-06T15:38:06Z</time>
      </trkpt>
      <trkpt lat="45.0763353" lon="7.7391463">
        <ele>247.6767578</ele>
        <time>2010-11-06T15:38:12Z</time>
      </trkpt>
      <trkpt lat="45.0764886" lon="7.7390413">
        <ele>247.1960449</ele>
        <time>2010-11-06T15:38:28Z</time>
      </trkpt>
      <trkpt lat="45.0765676" lon="7.7390043">
        <ele>246.2348633</ele>
        <time>2010-11-06T15:38:35Z</time>
      </trkpt>
      <trkpt lat="45.0768139" lon="7.7388860">
        <ele>246.2348633</ele>
        <time>2010-11-06T15:38:56Z</time>
      </trkpt>
      <trkpt lat="45.0768294" lon="7.7388771">
        <ele>246.2348633</ele>
        <time>2010-11-06T15:38:57Z</time>
      </trkpt>
      <trkpt lat="45.0770464" lon="7.7387746">
        <ele>245.7541504</ele>
        <time>2010-11-06T15:39:15Z</time>
      </trkpt>
      <trkpt lat="45.0770729" lon="7.7387524">
        <ele>245.7541504</ele>
        <time>2010-11-06T15:39:18Z</time>
      </trkpt>
      <trkpt lat="45.0772632" lon="7.7386083">
        <ele>245.2734375</ele>
        <time>2010-11-06T15:39:36Z</time>
      </trkpt>
      <trkpt lat="45.0773397" lon="7.7385568">
        <ele>244.7928467</ele>
        <time>2010-11-06T15:39:42Z</time>
      </trkpt>
      <trkpt lat="45.0773707" lon="7.7385160">
        <ele>244.3122559</ele>
        <time>2010-11-06T15:39:45Z</time>
      </trkpt>
      <trkpt lat="45.0774303" lon="7.7384846">
        <ele>244.7928467</ele>
        <time>2010-11-06T15:39:50Z</time>
      </trkpt>
      <trkpt lat="45.0774773" lon="7.7384222">
        <ele>244.3122559</ele>
        <time>2010-11-06T15:39:55Z</time>
      </trkpt>
      <trkpt lat="45.0776009" lon="7.7382946">
        <ele>243.8315430</ele>
        <time>2010-11-06T15:40:08Z</time>
      </trkpt>
      <trkpt lat="45.0776740" lon="7.7382262">
        <ele>243.8315430</ele>
        <time>2010-11-06T15:40:15Z</time>
      </trkpt>
      <trkpt lat="45.0778938" lon="7.7379501">
        <ele>243.3508301</ele>
        <time>2010-11-06T15:40:38Z</time>
      </trkpt>
      <trkpt lat="45.0779664" lon="7.7378911">
        <ele>243.3508301</ele>
        <time>2010-11-06T15:40:44Z</time>
      </trkpt>
      <trkpt lat="45.0781247" lon="7.7377487">
        <ele>242.8702393</ele>
        <time>2010-11-06T15:41:00Z</time>
      </trkpt>
      <trkpt lat="45.0781870" lon="7.7376222">
        <ele>242.8702393</ele>
        <time>2010-11-06T15:41:08Z</time>
      </trkpt>
      <trkpt lat="45.0782230" lon="7.7375709">
        <ele>242.3896484</ele>
        <time>2010-11-06T15:41:12Z</time>
      </trkpt>
      <trkpt lat="45.0782533" lon="7.7375492">
        <ele>242.3896484</ele>
        <time>2010-11-06T15:41:15Z</time>
      </trkpt>
      <trkpt lat="45.0782685" lon="7.7375289">
        <ele>242.3896484</ele>
        <time>2010-11-06T15:41:17Z</time>
      </trkpt>
      <trkpt lat="45.0783690" lon="7.7374738">
        <ele>241.9089355</ele>
        <time>2010-11-06T15:41:36Z</time>
      </trkpt>
      <trkpt lat="45.0784294" lon="7.7374273">
        <ele>241.9089355</ele>
        <time>2010-11-06T15:41:58Z</time>
      </trkpt>
      <trkpt lat="45.0784495" lon="7.7373614">
        <ele>241.9089355</ele>
        <time>2010-11-06T15:42:20Z</time>
      </trkpt>
      <trkpt lat="45.0784664" lon="7.7373414">
        <ele>241.4282227</ele>
        <time>2010-11-06T15:42:34Z</time>
      </trkpt>
      <trkpt lat="45.0785767" lon="7.7370901">
        <ele>240.9476318</ele>
        <time>2010-11-06T15:42:50Z</time>
      </trkpt>
      <trkpt lat="45.0786533" lon="7.7369829">
        <ele>240.9476318</ele>
        <time>2010-11-06T15:42:59Z</time>
      </trkpt>
      <trkpt lat="45.0787195" lon="7.7368068">
        <ele>239.9862061</ele>
        <time>2010-11-06T15:43:09Z</time>
      </trkpt>
      <trkpt lat="45.0787214" lon="7.7366908">
        <ele>239.5054932</ele>
        <time>2010-11-06T15:43:15Z</time>
      </trkpt>
      <trkpt lat="45.0788351" lon="7.7364735">
        <ele>238.5443115</ele>
        <time>2010-11-06T15:43:35Z</time>
      </trkpt>
      <trkpt lat="45.0788512" lon="7.7364510">
        <ele>238.5443115</ele>
        <time>2010-11-06T15:43:37Z</time>
      </trkpt>
      <trkpt lat="45.0789158" lon="7.7363648">
        <ele>238.0635986</ele>
        <time>2010-11-06T15:43:45Z</time>
      </trkpt>
      <trkpt lat="45.0789580" lon="7.7361859">
        <ele>238.0635986</ele>
        <time>2010-11-06T15:43:56Z</time>
      </trkpt>
      <trkpt lat="45.0789723" lon="7.7360648">
        <ele>237.5828857</ele>
        <time>2010-11-06T15:44:02Z</time>
      </trkpt>
      <trkpt lat="45.0790131" lon="7.7360314">
        <ele>237.1022949</ele>
        <time>2010-11-06T15:44:05Z</time>
      </trkpt>
      <trkpt lat="45.0791160" lon="7.7356153">
        <ele>237.1022949</ele>
        <time>2010-11-06T15:44:28Z</time>
      </trkpt>
      <trkpt lat="45.0791309" lon="7.7355890">
        <ele>237.1022949</ele>
        <time>2010-11-06T15:44:31Z</time>
      </trkpt>
      <trkpt lat="45.0791568" lon="7.7355542">
        <ele>237.1022949</ele>
        <time>2010-11-06T15:44:34Z</time>
      </trkpt>
      <trkpt lat="45.0791750" lon="7.7355063">
        <ele>236.6217041</ele>
        <time>2010-11-06T15:44:38Z</time>
      </trkpt>
      <trkpt lat="45.0791744" lon="7.7354086">
        <ele>236.1409912</ele>
        <time>2010-11-06T15:44:43Z</time>
      </trkpt>
      <trkpt lat="45.0793902" lon="7.7351180">
        <ele>235.1796875</ele>
        <time>2010-11-06T15:45:05Z</time>
      </trkpt>
      <trkpt lat="45.0794247" lon="7.7350881">
        <ele>235.1796875</ele>
        <time>2010-11-06T15:45:08Z</time>
      </trkpt>
      <trkpt lat="45.0794775" lon="7.7349552">
        <ele>235.1796875</ele>
        <time>2010-11-06T15:45:17Z</time>
      </trkpt>
      <trkpt lat="45.0795224" lon="7.7348342">
        <ele>234.6990967</ele>
        <time>2010-11-06T15:45:26Z</time>
      </trkpt>
      <trkpt lat="45.0796151" lon="7.7346940">
        <ele>233.7376709</ele>
        <time>2010-11-06T15:45:35Z</time>
      </trkpt>
      <trkpt lat="45.0797703" lon="7.7344006">
        <ele>233.7376709</ele>
        <time>2010-11-06T15:45:57Z</time>
      </trkpt>
      <trkpt lat="45.0798825" lon="7.7341530">
        <ele>232.7764893</ele>
        <time>2010-11-06T15:46:15Z</time>
      </trkpt>
      <trkpt lat="45.0799361" lon="7.7341828">
        <ele>233.2570801</ele>
        <time>2010-11-06T15:46:37Z</time>
      </trkpt>
      <trkpt lat="45.0799391" lon="7.7342015">
        <ele>232.2957764</ele>
        <time>2010-11-06T15:47:53Z</time>
      </trkpt>
      <trkpt lat="45.0799761" lon="7.7341543">
        <ele>232.7764893</ele>
        <time>2010-11-06T15:47:58Z</time>
      </trkpt>
      <trkpt lat="45.0801338" lon="7.7340506">
        <ele>231.8149414</ele>
        <time>2010-11-06T15:48:12Z</time>
      </trkpt>
      <trkpt lat="45.0801778" lon="7.7339147">
        <ele>231.8149414</ele>
        <time>2010-11-06T15:48:22Z</time>
      </trkpt>
      <trkpt lat="45.0801923" lon="7.7338073">
        <ele>230.8537598</ele>
        <time>2010-11-06T15:48:27Z</time>
      </trkpt>
      <trkpt lat="45.0802177" lon="7.7336480">
        <ele>230.8537598</ele>
        <time>2010-11-06T15:48:40Z</time>
      </trkpt>
      <trkpt lat="45.0801757" lon="7.7334537">
        <ele>230.8537598</ele>
        <time>2010-11-06T15:48:49Z</time>
      </trkpt>
      <trkpt lat="45.0801635" lon="7.7334131">
        <ele>230.3730469</ele>
        <time>2010-11-06T15:48:51Z</time>
      </trkpt>
      <trkpt lat="45.0802032" lon="7.7333732">
        <ele>229.8923340</ele>
        <time>2010-11-06T15:48:54Z</time>
      </trkpt>
      <trkpt lat="45.0802704" lon="7.7333408">
        <ele>229.8923340</ele>
        <time>2010-11-06T15:49:01Z</time>
      </trkpt>
      <trkpt lat="45.0804064" lon="7.7332754">
        <ele>229.8923340</ele>
        <time>2010-11-06T15:49:12Z</time>
      </trkpt>
      <trkpt lat="45.0804382" lon="7.7332408">
        <ele>229.4117432</ele>
        <time>2010-11-06T15:49:16Z</time>
      </trkpt>
      <trkpt lat="45.0803987" lon="7.7330244">
        <ele>229.8923340</ele>
        <time>2010-11-06T15:49:28Z</time>
      </trkpt>
      <trkpt lat="45.0802861" lon="7.7326467">
        <ele>228.4504395</ele>
        <time>2010-11-06T15:49:51Z</time>
      </trkpt>
      <trkpt lat="45.0802377" lon="7.7323544">
        <ele>227.9697266</ele>
        <time>2010-11-06T15:50:06Z</time>
      </trkpt>
      <trkpt lat="45.0802067" lon="7.7321492">
        <ele>226.5278320</ele>
        <time>2010-11-06T15:50:21Z</time>
      </trkpt>
      <trkpt lat="45.0800911" lon="7.7318723">
        <ele>226.0471191</ele>
        <time>2010-11-06T15:50:43Z</time>
      </trkpt>
      <trkpt lat="45.0800110" lon="7.7318241">
        <ele>225.5665283</ele>
        <time>2010-11-06T15:50:48Z</time>
      </trkpt>
      <trkpt lat="45.0798879" lon="7.7317334">
        <ele>225.5665283</ele>
        <time>2010-11-06T15:50:57Z</time>
      </trkpt>
      <trkpt lat="45.0798531" lon="7.7316805">
        <ele>225.5665283</ele>
        <time>2010-11-06T15:51:00Z</time>
      </trkpt>
      <trkpt lat="45.0800579" lon="7.7314869">
        <ele>224.6052246</ele>
        <time>2010-11-06T15:51:19Z</time>
      </trkpt>
      <trkpt lat="45.0802630" lon="7.7313226">
        <ele>224.1245117</ele>
        <time>2010-11-06T15:51:38Z</time>
      </trkpt>
      <trkpt lat="45.0803283" lon="7.7312662">
        <ele>224.6052246</ele>
        <time>2010-11-06T15:51:44Z</time>
      </trkpt>
      <trkpt lat="45.0803968" lon="7.7312446">
        <ele>224.1245117</ele>
        <time>2010-11-06T15:51:49Z</time>
      </trkpt>
      <trkpt lat="45.0805556" lon="7.7311454">
        <ele>224.1245117</ele>
        <time>2010-11-06T15:52:09Z</time>
      </trkpt>
      <trkpt lat="45.0806385" lon="7.7310799">
        <ele>224.1245117</ele>
        <time>2010-11-06T15:52:17Z</time>
      </trkpt>
      <trkpt lat="45.0806632" lon="7.7309021">
        <ele>223.6437988</ele>
        <time>2010-11-06T15:52:33Z</time>
      </trkpt>
      <trkpt lat="45.0806333" lon="7.7308748">
        <ele>223.6437988</ele>
        <time>2010-11-06T15:52:37Z</time>
      </trkpt>
      <trkpt lat="45.0806115" lon="7.7308458">
        <ele>223.1632080</ele>
        <time>2010-11-06T15:52:39Z</time>
      </trkpt>
      <trkpt lat="45.0806275" lon="7.7307259">
        <ele>223.1632080</ele>
        <time>2010-11-06T15:52:46Z</time>
      </trkpt>
      <trkpt lat="45.0807040" lon="7.7303880">
        <ele>222.2017822</ele>
        <time>2010-11-06T15:53:07Z</time>
      </trkpt>
      <trkpt lat="45.0807560" lon="7.7302074">
        <ele>221.7211914</ele>
        <time>2010-11-06T15:53:37Z</time>
      </trkpt>
      <trkpt lat="45.0808187" lon="7.7299834">
        <ele>221.7211914</ele>
        <time>2010-11-06T15:53:51Z</time>
      </trkpt>
      <trkpt lat="45.0808429" lon="7.7299261">
        <ele>221.7211914</ele>
        <time>2010-11-06T15:53:57Z</time>
      </trkpt>
      <trkpt lat="45.0808709" lon="7.7295891">
        <ele>221.7211914</ele>
        <time>2010-11-06T15:54:21Z</time>
      </trkpt>
      <trkpt lat="45.0809162" lon="7.7294380">
        <ele>221.2406006</ele>
        <time>2010-11-06T15:55:19Z</time>
      </trkpt>
      <trkpt lat="45.0810493" lon="7.7291986">
        <ele>221.2406006</ele>
        <time>2010-11-06T15:55:36Z</time>
      </trkpt>
      <trkpt lat="45.0810771" lon="7.7291249">
        <ele>221.2406006</ele>
        <time>2010-11-06T15:55:42Z</time>
      </trkpt>
      <trkpt lat="45.0811238" lon="7.7290133">
        <ele>220.2791748</ele>
        <time>2010-11-06T15:55:50Z</time>
      </trkpt>
      <trkpt lat="45.0812104" lon="7.7287179">
        <ele>218.8372803</ele>
        <time>2010-11-06T15:56:10Z</time>
      </trkpt>
      <trkpt lat="45.0813238" lon="7.7284439">
        <ele>218.8372803</ele>
        <time>2010-11-06T15:56:28Z</time>
      </trkpt>
      <trkpt lat="45.0813889" lon="7.7280327">
        <ele>218.3565674</ele>
        <time>2010-11-06T15:56:50Z</time>
      </trkpt>
      <trkpt lat="45.0813871" lon="7.7279823">
        <ele>218.8372803</ele>
        <time>2010-11-06T15:56:54Z</time>
      </trkpt>
      <trkpt lat="45.0814327" lon="7.7276449">
        <ele>217.8759766</ele>
        <time>2010-11-06T15:57:15Z</time>
      </trkpt>
      <trkpt lat="45.0815005" lon="7.7273579">
        <ele>217.8759766</ele>
        <time>2010-11-06T15:57:33Z</time>
      </trkpt>
      <trkpt lat="45.0815065" lon="7.7271677">
        <ele>218.3565674</ele>
        <time>2010-11-06T15:57:43Z</time>
      </trkpt>
      <trkpt lat="45.0815671" lon="7.7268527">
        <ele>218.3565674</ele>
        <time>2010-11-06T15:58:00Z</time>
      </trkpt>
      <trkpt lat="45.0815659" lon="7.7267341">
        <ele>217.3953857</ele>
        <time>2010-11-06T15:58:06Z</time>
      </trkpt>
      <trkpt lat="45.0816345" lon="7.7263802">
        <ele>217.8759766</ele>
        <time>2010-11-06T15:58:25Z</time>
      </trkpt>
      <trkpt lat="45.0816367" lon="7.7263319">
        <ele>217.8759766</ele>
        <time>2010-11-06T15:58:28Z</time>
      </trkpt>
      <trkpt lat="45.0816589" lon="7.7262477">
        <ele>217.3953857</ele>
        <time>2010-11-06T15:58:33Z</time>
      </trkpt>
      <trkpt lat="45.0817182" lon="7.7259864">
        <ele>216.9146729</ele>
        <time>2010-11-06T15:58:49Z</time>
      </trkpt>
      <trkpt lat="45.0817550" lon="7.7258693">
        <ele>216.9146729</ele>
        <time>2010-11-06T15:58:57Z</time>
      </trkpt>
      <trkpt lat="45.0817968" lon="7.7255141">
        <ele>215.9532471</ele>
        <time>2010-11-06T15:59:20Z</time>
      </trkpt>
      <trkpt lat="45.0818637" lon="7.7252515">
        <ele>215.4726563</ele>
        <time>2010-11-06T15:59:41Z</time>
      </trkpt>
      <trkpt lat="45.0819318" lon="7.7250749">
        <ele>214.5112305</ele>
        <time>2010-11-06T15:59:55Z</time>
      </trkpt>
      <trkpt lat="45.0821783" lon="7.7249426">
        <ele>214.5112305</ele>
        <time>2010-11-06T16:00:17Z</time>
      </trkpt>
      <trkpt lat="45.0823711" lon="7.7249090">
        <ele>213.5500488</ele>
        <time>2010-11-06T16:00:32Z</time>
      </trkpt>
      <trkpt lat="45.0824201" lon="7.7248979">
        <ele>213.0693359</ele>
        <time>2010-11-06T16:00:36Z</time>
      </trkpt>
      <trkpt lat="45.0826755" lon="7.7247941">
        <ele>212.5886230</ele>
        <time>2010-11-06T16:00:58Z</time>
      </trkpt>
      <trkpt lat="45.0828881" lon="7.7246792">
        <ele>213.0693359</ele>
        <time>2010-11-06T16:01:19Z</time>
      </trkpt>
      <trkpt lat="45.0831112" lon="7.7246479">
        <ele>213.0693359</ele>
        <time>2010-11-06T16:01:36Z</time>
      </trkpt>
      <trkpt lat="45.0834016" lon="7.7245296">
        <ele>213.0693359</ele>
        <time>2010-11-06T16:01:59Z</time>
      </trkpt>
      <trkpt lat="45.0836661" lon="7.7243984">
        <ele>212.5886230</ele>
        <time>2010-11-06T16:02:20Z</time>
      </trkpt>
      <trkpt lat="45.0839038" lon="7.7242653">
        <ele>212.5886230</ele>
        <time>2010-11-06T16:02:41Z</time>
      </trkpt>
      <trkpt lat="45.0841538" lon="7.7240321">
        <ele>212.5886230</ele>
        <time>2010-11-06T16:03:03Z</time>
      </trkpt>
      <trkpt lat="45.0843686" lon="7.7238763">
        <ele>212.1080322</ele>
        <time>2010-11-06T16:03:22Z</time>
      </trkpt>
      <trkpt lat="45.0845106" lon="7.7237737">
        <ele>212.1080322</ele>
        <time>2010-11-06T16:03:44Z</time>
      </trkpt>
      <trkpt lat="45.0846780" lon="7.7237367">
        <ele>212.1080322</ele>
        <time>2010-11-06T16:03:57Z</time>
      </trkpt>
      <trkpt lat="45.0846965" lon="7.7237196">
        <ele>212.1080322</ele>
        <time>2010-11-06T16:03:59Z</time>
      </trkpt>
      <trkpt lat="45.0849947" lon="7.7235080">
        <ele>212.1080322</ele>
        <time>2010-11-06T16:04:22Z</time>
      </trkpt>
      <trkpt lat="45.0852618" lon="7.7233256">
        <ele>211.6274414</ele>
        <time>2010-11-06T16:04:45Z</time>
      </trkpt>
      <trkpt lat="45.0853201" lon="7.7232531">
        <ele>212.1080322</ele>
        <time>2010-11-06T16:04:50Z</time>
      </trkpt>
      <trkpt lat="45.0853782" lon="7.7232130">
        <ele>212.1080322</ele>
        <time>2010-11-06T16:04:55Z</time>
      </trkpt>
      <trkpt lat="45.0855827" lon="7.7230300">
        <ele>212.1080322</ele>
        <time>2010-11-06T16:05:17Z</time>
      </trkpt>
      <trkpt lat="45.0858381" lon="7.7229588">
        <ele>211.6274414</ele>
        <time>2010-11-06T16:05:39Z</time>
      </trkpt>
      <trkpt lat="45.0861154" lon="7.7228726">
        <ele>211.6274414</ele>
        <time>2010-11-06T16:06:01Z</time>
      </trkpt>
      <trkpt lat="45.0863665" lon="7.7228200">
        <ele>211.1467285</ele>
        <time>2010-11-06T16:06:21Z</time>
      </trkpt>
      <trkpt lat="45.0865981" lon="7.7228013">
        <ele>211.6274414</ele>
        <time>2010-11-06T16:06:41Z</time>
      </trkpt>
      <trkpt lat="45.0868836" lon="7.7228669">
        <ele>211.1467285</ele>
        <time>2010-11-06T16:07:02Z</time>
      </trkpt>
      <trkpt lat="45.0871536" lon="7.7229288">
        <ele>211.1467285</ele>
        <time>2010-11-06T16:07:23Z</time>
      </trkpt>
      <trkpt lat="45.0874429" lon="7.7230066">
        <ele>211.1467285</ele>
        <time>2010-11-06T16:07:45Z</time>
      </trkpt>
      <trkpt lat="45.0877002" lon="7.7231017">
        <ele>211.1467285</ele>
        <time>2010-11-06T16:08:07Z</time>
      </trkpt>
      <trkpt lat="45.0879356" lon="7.7232814">
        <ele>210.6660156</ele>
        <time>2010-11-06T16:08:28Z</time>
      </trkpt>
      <trkpt lat="45.0879963" lon="7.7233372">
        <ele>210.1854248</ele>
        <time>2010-11-06T16:08:34Z</time>
      </trkpt>
      <trkpt lat="45.0882193" lon="7.7235620">
        <ele>210.1854248</ele>
        <time>2010-11-06T16:08:55Z</time>
      </trkpt>
      <trkpt lat="45.0883922" lon="7.7238287">
        <ele>210.1854248</ele>
        <time>2010-11-06T16:09:14Z</time>
      </trkpt>
      <trkpt lat="45.0884368" lon="7.7238760">
        <ele>210.6660156</ele>
        <time>2010-11-06T16:09:19Z</time>
      </trkpt>
      <trkpt lat="45.0884674" lon="7.7239038">
        <ele>209.7048340</ele>
        <time>2010-11-06T16:09:24Z</time>
      </trkpt>
      <trkpt lat="45.0885345" lon="7.7239897">
        <ele>210.1854248</ele>
        <time>2010-11-06T16:09:30Z</time>
      </trkpt>
      <trkpt lat="45.0886732" lon="7.7241518">
        <ele>210.1854248</ele>
        <time>2010-11-06T16:09:42Z</time>
      </trkpt>
      <trkpt lat="45.0887099" lon="7.7242134">
        <ele>209.7048340</ele>
        <time>2010-11-06T16:09:47Z</time>
      </trkpt>
      <trkpt lat="45.0889453" lon="7.7244836">
        <ele>209.2241211</ele>
        <time>2010-11-06T16:10:09Z</time>
      </trkpt>
      <trkpt lat="45.0891972" lon="7.7247071">
        <ele>209.2241211</ele>
        <time>2010-11-06T16:10:32Z</time>
      </trkpt>
      <trkpt lat="45.0893737" lon="7.7249213">
        <ele>210.1854248</ele>
        <time>2010-11-06T16:10:52Z</time>
      </trkpt>
      <trkpt lat="45.0894844" lon="7.7252148">
        <ele>210.1854248</ele>
        <time>2010-11-06T16:11:13Z</time>
      </trkpt>
      <trkpt lat="45.0896443" lon="7.7253959">
        <ele>209.7048340</ele>
        <time>2010-11-06T16:11:36Z</time>
      </trkpt>
      <trkpt lat="45.0897591" lon="7.7255142">
        <ele>210.1854248</ele>
        <time>2010-11-06T16:12:05Z</time>
      </trkpt>
      <trkpt lat="45.0899133" lon="7.7256606">
        <ele>210.6660156</ele>
        <time>2010-11-06T16:12:23Z</time>
      </trkpt>
      <trkpt lat="45.0900818" lon="7.7258500">
        <ele>210.1854248</ele>
        <time>2010-11-06T16:12:44Z</time>
      </trkpt>
      <trkpt lat="45.0902593" lon="7.7260685">
        <ele>210.1854248</ele>
        <time>2010-11-06T16:13:05Z</time>
      </trkpt>
      <trkpt lat="45.0904292" lon="7.7262498">
        <ele>210.1854248</ele>
        <time>2010-11-06T16:13:25Z</time>
      </trkpt>
      <trkpt lat="45.0907097" lon="7.7264286">
        <ele>210.1854248</ele>
        <time>2010-11-06T16:13:49Z</time>
      </trkpt>
      <trkpt lat="45.0908469" lon="7.7265243">
        <ele>209.7048340</ele>
        <time>2010-11-06T16:14:08Z</time>
      </trkpt>
      <trkpt lat="45.0910454" lon="7.7268044">
        <ele>209.7048340</ele>
        <time>2010-11-06T16:14:30Z</time>
      </trkpt>
      <trkpt lat="45.0912299" lon="7.7271091">
        <ele>210.6660156</ele>
        <time>2010-11-06T16:14:53Z</time>
      </trkpt>
      <trkpt lat="45.0913094" lon="7.7272738">
        <ele>209.7048340</ele>
        <time>2010-11-06T16:15:02Z</time>
      </trkpt>
      <trkpt lat="45.0913915" lon="7.7274367">
        <ele>210.1854248</ele>
        <time>2010-11-06T16:15:14Z</time>
      </trkpt>
      <trkpt lat="45.0914454" lon="7.7275679">
        <ele>210.1854248</ele>
        <time>2010-11-06T16:15:22Z</time>
      </trkpt>
      <trkpt lat="45.0914587" lon="7.7276318">
        <ele>209.2241211</ele>
        <time>2010-11-06T16:15:26Z</time>
      </trkpt>
      <trkpt lat="45.0916145" lon="7.7279092">
        <ele>209.7048340</ele>
        <time>2010-11-06T16:15:47Z</time>
      </trkpt>
      <trkpt lat="45.0918085" lon="7.7280826">
        <ele>210.1854248</ele>
        <time>2010-11-06T16:16:07Z</time>
      </trkpt>
      <trkpt lat="45.0919255" lon="7.7281489">
        <ele>209.2241211</ele>
        <time>2010-11-06T16:16:19Z</time>
      </trkpt>
      <trkpt lat="45.0919608" lon="7.7281915">
        <ele>209.7048340</ele>
        <time>2010-11-06T16:16:23Z</time>
      </trkpt>
      <trkpt lat="45.0920585" lon="7.7282599">
        <ele>209.7048340</ele>
        <time>2010-11-06T16:16:31Z</time>
      </trkpt>
      <trkpt lat="45.0921747" lon="7.7283546">
        <ele>209.2241211</ele>
        <time>2010-11-06T16:16:42Z</time>
      </trkpt>
      <trkpt lat="45.0922665" lon="7.7284451">
        <ele>209.2241211</ele>
        <time>2010-11-06T16:16:50Z</time>
      </trkpt>
      <trkpt lat="45.0923490" lon="7.7285703">
        <ele>209.2241211</ele>
        <time>2010-11-06T16:17:02Z</time>
      </trkpt>
      <trkpt lat="45.0924048" lon="7.7286164">
        <ele>209.2241211</ele>
        <time>2010-11-06T16:17:35Z</time>
      </trkpt>
      <trkpt lat="45.0924003" lon="7.7286387">
        <ele>209.7048340</ele>
        <time>2010-11-06T16:18:32Z</time>
      </trkpt>
      <trkpt lat="45.0924014" lon="7.7286405">
        <ele>209.7048340</ele>
        <time>2010-11-06T16:18:49Z</time>
      </trkpt>
    </trkseg>
  </trk>

</gpx>
